
<gpx xmlns="http://www.topografix.com/GPX/1/1" xmlns:gpxx="http://www.garmin.com/xmlschemas/GpxExtensions/v3" xmlns:xsi="http://www.w3.org/2001/XMLSchema-instance" version="1.1" creator="Adze - https://getadze.com/" xsi:schemaLocation="http://www.topografix.com/GPX/1/1 http://www.topografix.com/GPX/1/1/gpx.xsd http://www.garmin.com/xmlschemas/GpxExtensions/v3 http://www.garmin.com/xmlschemas/GpxExtensionsv3.xsd">
    <metadata>
        <name>Untitled Document</name>
        <link href="http://www.garmin.com"></link>
        <time>2018-03-07T08:18:56.419Z</time>
    </metadata>
    <wpt lon="101.047783" lat="14.690437">
        <name>Supalai Pasak</name>
        <sym>Lodging</sym>
        <extensions>
            <gpxx:WaypointExtension xmlns:gpxx="http://www.garmin.com/xmlschemas/GpxExtensions/v3">
                <gpxx:DisplayMode>SymbolAndName</gpxx:DisplayMode>
            </gpxx:WaypointExtension>
        </extensions>
    </wpt>
    <wpt lon="100.981300" lat="14.689640">
        <ele>53.000000</ele>
        <name>December 2008 - Saturday water</name>
        <sym>Drinking Water</sym>
        <extensions>
            <gpxx:WaypointExtension xmlns:gpxx="http://www.garmin.com/xmlschemas/GpxExtensions/v3">
                <gpxx:DisplayMode>SymbolOnly</gpxx:DisplayMode>
            </gpxx:WaypointExtension>
        </extensions>
    </wpt>
    <trk>
        <name>December 2008 - Saturday</name>
        <extensions>
            <gpxx:TrackExtension xmlns:gpxx="http://www.garmin.com/xmlschemas/GpxExtensions/v3">
                <gpxx:DisplayColor>Red</gpxx:DisplayColor>
            </gpxx:TrackExtension>
        </extensions>
        <trkseg>
            <trkpt lon="101.048551" lat="14.691769">
                <ele>28.015503</ele>
                <time>2008-12-13T05:59:11Z</time>
            </trkpt>
            <trkpt lon="101.048611" lat="14.691734">
                <ele>28.496216</ele>
                <time>2008-12-13T05:59:16Z</time>
            </trkpt>
            <trkpt lon="101.048541" lat="14.691496">
                <ele>30.899536</ele>
                <time>2008-12-13T05:59:27Z</time>
            </trkpt>
            <trkpt lon="101.048400" lat="14.691486">
                <ele>31.380127</ele>
                <time>2008-12-13T05:59:32Z</time>
            </trkpt>
            <trkpt lon="101.048452" lat="14.691378">
                <ele>31.380127</ele>
                <time>2008-12-13T05:59:41Z</time>
            </trkpt>
            <trkpt lon="101.048345" lat="14.691226">
                <ele>30.899536</ele>
                <time>2008-12-13T05:59:47Z</time>
            </trkpt>
            <trkpt lon="101.048239" lat="14.691198">
                <ele>29.457520</ele>
                <time>2008-12-13T05:59:49Z</time>
            </trkpt>
            <trkpt lon="101.048086" lat="14.691069">
                <ele>29.457520</ele>
                <time>2008-12-13T05:59:53Z</time>
            </trkpt>
            <trkpt lon="101.047987" lat="14.690797">
                <ele>30.418823</ele>
                <time>2008-12-13T05:59:59Z</time>
            </trkpt>
            <trkpt lon="101.047809" lat="14.690688">
                <ele>28.976929</ele>
                <time>2008-12-13T06:00:04Z</time>
            </trkpt>
            <trkpt lon="101.047348" lat="14.690660">
                <ele>26.092896</ele>
                <time>2008-12-13T06:00:13Z</time>
            </trkpt>
            <trkpt lon="101.047257" lat="14.690624">
                <ele>25.612305</ele>
                <time>2008-12-13T06:00:15Z</time>
            </trkpt>
            <trkpt lon="101.047083" lat="14.690567">
                <ele>27.534912</ele>
                <time>2008-12-13T06:00:18Z</time>
            </trkpt>
            <trkpt lon="101.046748" lat="14.690423">
                <ele>25.131714</ele>
                <time>2008-12-13T06:00:24Z</time>
            </trkpt>
            <trkpt lon="101.046402" lat="14.690212">
                <ele>27.054321</ele>
                <time>2008-12-13T06:00:30Z</time>
            </trkpt>
            <trkpt lon="101.046087" lat="14.689557">
                <ele>29.457520</ele>
                <time>2008-12-13T06:00:40Z</time>
            </trkpt>
            <trkpt lon="101.046070" lat="14.689419">
                <ele>28.976929</ele>
                <time>2008-12-13T06:00:42Z</time>
            </trkpt>
            <trkpt lon="101.046054" lat="14.689204">
                <ele>28.976929</ele>
                <time>2008-12-13T06:00:45Z</time>
            </trkpt>
            <trkpt lon="101.046037" lat="14.689010">
                <ele>29.457520</ele>
                <time>2008-12-13T06:00:48Z</time>
            </trkpt>
            <trkpt lon="101.045881" lat="14.688634">
                <ele>28.976929</ele>
                <time>2008-12-13T06:00:56Z</time>
            </trkpt>
            <trkpt lon="101.045840" lat="14.688493">
                <ele>28.015503</ele>
                <time>2008-12-13T06:00:59Z</time>
            </trkpt>
            <trkpt lon="101.045639" lat="14.688110">
                <ele>31.380127</ele>
                <time>2008-12-13T06:01:06Z</time>
            </trkpt>
            <trkpt lon="101.045464" lat="14.687974">
                <ele>31.380127</ele>
                <time>2008-12-13T06:01:09Z</time>
            </trkpt>
            <trkpt lon="101.045253" lat="14.687704">
                <ele>33.783447</ele>
                <time>2008-12-13T06:01:14Z</time>
            </trkpt>
            <trkpt lon="101.045209" lat="14.687602">
                <ele>32.822266</ele>
                <time>2008-12-13T06:01:16Z</time>
            </trkpt>
            <trkpt lon="101.044679" lat="14.686961">
                <ele>28.976929</ele>
                <time>2008-12-13T06:01:28Z</time>
            </trkpt>
            <trkpt lon="101.044643" lat="14.686961">
                <ele>29.457520</ele>
                <time>2008-12-13T06:01:29Z</time>
            </trkpt>
            <trkpt lon="101.044438" lat="14.686969">
                <ele>28.496216</ele>
                <time>2008-12-13T06:01:35Z</time>
            </trkpt>
            <trkpt lon="101.044032" lat="14.687058">
                <ele>28.976929</ele>
                <time>2008-12-13T06:01:43Z</time>
            </trkpt>
            <trkpt lon="101.043192" lat="14.687562">
                <ele>28.015503</ele>
                <time>2008-12-13T06:01:59Z</time>
            </trkpt>
            <trkpt lon="101.042493" lat="14.687691">
                <ele>26.573608</ele>
                <time>2008-12-13T06:02:10Z</time>
            </trkpt>
            <trkpt lon="101.041739" lat="14.687437">
                <ele>25.612305</ele>
                <time>2008-12-13T06:02:22Z</time>
            </trkpt>
            <trkpt lon="101.040451" lat="14.686852">
                <ele>28.015503</ele>
                <time>2008-12-13T06:02:42Z</time>
            </trkpt>
            <trkpt lon="101.039889" lat="14.687038">
                <ele>28.976929</ele>
                <time>2008-12-13T06:02:51Z</time>
            </trkpt>
            <trkpt lon="101.039827" lat="14.687072">
                <ele>28.496216</ele>
                <time>2008-12-13T06:02:52Z</time>
            </trkpt>
            <trkpt lon="101.039707" lat="14.687139">
                <ele>28.015503</ele>
                <time>2008-12-13T06:02:54Z</time>
            </trkpt>
            <trkpt lon="101.038777" lat="14.688132">
                <ele>27.054321</ele>
                <time>2008-12-13T06:03:13Z</time>
            </trkpt>
            <trkpt lon="101.037780" lat="14.688763">
                <ele>27.054321</ele>
                <time>2008-12-13T06:03:29Z</time>
            </trkpt>
            <trkpt lon="101.036579" lat="14.689323">
                <ele>24.651001</ele>
                <time>2008-12-13T06:03:47Z</time>
            </trkpt>
            <trkpt lon="101.035993" lat="14.689938">
                <ele>23.689575</ele>
                <time>2008-12-13T06:03:58Z</time>
            </trkpt>
            <trkpt lon="101.034984" lat="14.690345">
                <ele>23.208984</ele>
                <time>2008-12-13T06:04:13Z</time>
            </trkpt>
            <trkpt lon="101.033763" lat="14.690553">
                <ele>25.612305</ele>
                <time>2008-12-13T06:04:31Z</time>
            </trkpt>
            <trkpt lon="101.033640" lat="14.690592">
                <ele>25.612305</ele>
                <time>2008-12-13T06:04:33Z</time>
            </trkpt>
            <trkpt lon="101.032777" lat="14.690842">
                <ele>25.612305</ele>
                <time>2008-12-13T06:04:46Z</time>
            </trkpt>
            <trkpt lon="101.032167" lat="14.690900">
                <ele>26.092896</ele>
                <time>2008-12-13T06:04:56Z</time>
            </trkpt>
            <trkpt lon="101.031384" lat="14.690563">
                <ele>29.938110</ele>
                <time>2008-12-13T06:05:10Z</time>
            </trkpt>
            <trkpt lon="101.031270" lat="14.690486">
                <ele>30.899536</ele>
                <time>2008-12-13T06:05:12Z</time>
            </trkpt>
            <trkpt lon="101.030726" lat="14.689698">
                <ele>31.380127</ele>
                <time>2008-12-13T06:05:26Z</time>
            </trkpt>
            <trkpt lon="101.029819" lat="14.689010">
                <ele>28.496216</ele>
                <time>2008-12-13T06:05:42Z</time>
            </trkpt>
            <trkpt lon="101.029684" lat="14.688952">
                <ele>28.496216</ele>
                <time>2008-12-13T06:05:44Z</time>
            </trkpt>
            <trkpt lon="101.028626" lat="14.688496">
                <ele>28.015503</ele>
                <time>2008-12-13T06:06:00Z</time>
            </trkpt>
            <trkpt lon="101.028382" lat="14.688358">
                <ele>28.496216</ele>
                <time>2008-12-13T06:06:04Z</time>
            </trkpt>
            <trkpt lon="101.028144" lat="14.688215">
                <ele>28.976929</ele>
                <time>2008-12-13T06:06:08Z</time>
            </trkpt>
            <trkpt lon="101.027940" lat="14.688032">
                <ele>29.457520</ele>
                <time>2008-12-13T06:06:12Z</time>
            </trkpt>
            <trkpt lon="101.027725" lat="14.687529">
                <ele>29.938110</ele>
                <time>2008-12-13T06:06:20Z</time>
            </trkpt>
            <trkpt lon="101.027763" lat="14.686488">
                <ele>26.573608</ele>
                <time>2008-12-13T06:06:35Z</time>
            </trkpt>
            <trkpt lon="101.027913" lat="14.685672">
                <ele>26.573608</ele>
                <time>2008-12-13T06:06:47Z</time>
            </trkpt>
            <trkpt lon="101.027641" lat="14.684598">
                <ele>27.534912</ele>
                <time>2008-12-13T06:07:03Z</time>
            </trkpt>
            <trkpt lon="101.027351" lat="14.683898">
                <ele>26.573608</ele>
                <time>2008-12-13T06:07:14Z</time>
            </trkpt>
            <trkpt lon="101.026702" lat="14.683352">
                <ele>26.573608</ele>
                <time>2008-12-13T06:07:26Z</time>
            </trkpt>
            <trkpt lon="101.026507" lat="14.683103">
                <ele>27.054321</ele>
                <time>2008-12-13T06:07:34Z</time>
            </trkpt>
            <trkpt lon="101.026525" lat="14.682947">
                <ele>27.534912</ele>
                <time>2008-12-13T06:07:38Z</time>
            </trkpt>
            <trkpt lon="101.026207" lat="14.682601">
                <ele>28.015503</ele>
                <time>2008-12-13T06:07:47Z</time>
            </trkpt>
            <trkpt lon="101.026144" lat="14.682581">
                <ele>28.015503</ele>
                <time>2008-12-13T06:07:48Z</time>
            </trkpt>
            <trkpt lon="101.025253" lat="14.682427">
                <ele>28.496216</ele>
                <time>2008-12-13T06:08:01Z</time>
            </trkpt>
            <trkpt lon="101.024964" lat="14.682128">
                <ele>28.976929</ele>
                <time>2008-12-13T06:08:07Z</time>
            </trkpt>
            <trkpt lon="101.024015" lat="14.681302">
                <ele>30.418823</ele>
                <time>2008-12-13T06:08:25Z</time>
            </trkpt>
            <trkpt lon="101.022785" lat="14.680374">
                <ele>29.938110</ele>
                <time>2008-12-13T06:08:47Z</time>
            </trkpt>
            <trkpt lon="101.022739" lat="14.680316">
                <ele>29.938110</ele>
                <time>2008-12-13T06:08:48Z</time>
            </trkpt>
            <trkpt lon="101.022590" lat="14.679987">
                <ele>30.899536</ele>
                <time>2008-12-13T06:08:53Z</time>
            </trkpt>
            <trkpt lon="101.022478" lat="14.678757">
                <ele>30.418823</ele>
                <time>2008-12-13T06:09:10Z</time>
            </trkpt>
            <trkpt lon="101.022209" lat="14.677577">
                <ele>29.938110</ele>
                <time>2008-12-13T06:09:28Z</time>
            </trkpt>
            <trkpt lon="101.022027" lat="14.677029">
                <ele>29.457520</ele>
                <time>2008-12-13T06:09:43Z</time>
            </trkpt>
            <trkpt lon="101.022038" lat="14.677028">
                <ele>28.015503</ele>
                <time>2008-12-13T06:09:47Z</time>
            </trkpt>
            <trkpt lon="101.022224" lat="14.677642">
                <ele>25.612305</ele>
                <time>2008-12-13T06:10:04Z</time>
            </trkpt>
            <trkpt lon="101.022299" lat="14.677957">
                <ele>25.612305</ele>
                <time>2008-12-13T06:10:15Z</time>
            </trkpt>
            <trkpt lon="101.022388" lat="14.678330">
                <ele>25.612305</ele>
                <time>2008-12-13T06:10:31Z</time>
            </trkpt>
            <trkpt lon="101.022492" lat="14.678823">
                <ele>26.092896</ele>
                <time>2008-12-13T06:10:43Z</time>
            </trkpt>
            <trkpt lon="101.022548" lat="14.679232">
                <ele>26.573608</ele>
                <time>2008-12-13T06:10:59Z</time>
            </trkpt>
            <trkpt lon="101.022561" lat="14.679453">
                <ele>26.573608</ele>
                <time>2008-12-13T06:11:14Z</time>
            </trkpt>
            <trkpt lon="101.022561" lat="14.679453">
                <ele>28.976929</ele>
                <time>2008-12-13T06:12:44Z</time>
            </trkpt>
            <trkpt lon="101.022561" lat="14.679453">
                <ele>33.302856</ele>
                <time>2008-12-13T06:13:36Z</time>
            </trkpt>
            <trkpt lon="101.022577" lat="14.679750">
                <ele>30.418823</ele>
                <time>2008-12-13T06:13:51Z</time>
            </trkpt>
            <trkpt lon="101.022646" lat="14.680130">
                <ele>29.938110</ele>
                <time>2008-12-13T06:14:03Z</time>
            </trkpt>
            <trkpt lon="101.022926" lat="14.680495">
                <ele>29.457520</ele>
                <time>2008-12-13T06:14:18Z</time>
            </trkpt>
            <trkpt lon="101.023335" lat="14.680798">
                <ele>29.457520</ele>
                <time>2008-12-13T06:14:30Z</time>
            </trkpt>
            <trkpt lon="101.024029" lat="14.681313">
                <ele>29.457520</ele>
                <time>2008-12-13T06:14:49Z</time>
            </trkpt>
            <trkpt lon="101.024239" lat="14.681479">
                <ele>28.496216</ele>
                <time>2008-12-13T06:15:02Z</time>
            </trkpt>
            <trkpt lon="101.024540" lat="14.681717">
                <ele>28.015503</ele>
                <time>2008-12-13T06:15:19Z</time>
            </trkpt>
            <trkpt lon="101.024900" lat="14.682042">
                <ele>27.054321</ele>
                <time>2008-12-13T06:15:39Z</time>
            </trkpt>
            <trkpt lon="101.025057" lat="14.682252">
                <ele>26.092896</ele>
                <time>2008-12-13T06:15:57Z</time>
            </trkpt>
            <trkpt lon="101.025057" lat="14.682252">
                <ele>29.457520</ele>
                <time>2008-12-13T06:16:28Z</time>
            </trkpt>
            <trkpt lon="101.025049" lat="14.682241">
                <ele>30.418823</ele>
                <time>2008-12-13T06:16:33Z</time>
            </trkpt>
            <trkpt lon="101.024739" lat="14.681874">
                <ele>32.341553</ele>
                <time>2008-12-13T06:16:48Z</time>
            </trkpt>
            <trkpt lon="101.024409" lat="14.681613">
                <ele>33.783447</ele>
                <time>2008-12-13T06:17:05Z</time>
            </trkpt>
            <trkpt lon="101.024143" lat="14.681404">
                <ele>32.341553</ele>
                <time>2008-12-13T06:17:19Z</time>
            </trkpt>
            <trkpt lon="101.024131" lat="14.681394">
                <ele>32.341553</ele>
                <time>2008-12-13T06:17:22Z</time>
            </trkpt>
            <trkpt lon="101.024135" lat="14.681397">
                <ele>30.899536</ele>
                <time>2008-12-13T06:17:26Z</time>
            </trkpt>
            <trkpt lon="101.024225" lat="14.681304">
                <ele>28.496216</ele>
                <time>2008-12-13T06:17:39Z</time>
            </trkpt>
            <trkpt lon="101.024223" lat="14.681306">
                <ele>28.015503</ele>
                <time>2008-12-13T06:17:42Z</time>
            </trkpt>
            <trkpt lon="101.024028" lat="14.681275">
                <ele>28.496216</ele>
                <time>2008-12-13T06:17:55Z</time>
            </trkpt>
            <trkpt lon="101.023602" lat="14.680996">
                <ele>28.976929</ele>
                <time>2008-12-13T06:18:07Z</time>
            </trkpt>
            <trkpt lon="101.022884" lat="14.680464">
                <ele>29.938110</ele>
                <time>2008-12-13T06:18:19Z</time>
            </trkpt>
            <trkpt lon="101.022635" lat="14.680097">
                <ele>30.418823</ele>
                <time>2008-12-13T06:18:25Z</time>
            </trkpt>
            <trkpt lon="101.022580" lat="14.679797">
                <ele>31.380127</ele>
                <time>2008-12-13T06:18:29Z</time>
            </trkpt>
            <trkpt lon="101.022345" lat="14.678148">
                <ele>32.822266</ele>
                <time>2008-12-13T06:18:49Z</time>
            </trkpt>
            <trkpt lon="101.021975" lat="14.676872">
                <ele>30.899536</ele>
                <time>2008-12-13T06:19:06Z</time>
            </trkpt>
            <trkpt lon="101.021836" lat="14.676454">
                <ele>30.899536</ele>
                <time>2008-12-13T06:19:13Z</time>
            </trkpt>
            <trkpt lon="101.021972" lat="14.676298">
                <ele>29.938110</ele>
                <time>2008-12-13T06:19:17Z</time>
            </trkpt>
            <trkpt lon="101.022400" lat="14.675967">
                <ele>26.573608</ele>
                <time>2008-12-13T06:19:27Z</time>
            </trkpt>
            <trkpt lon="101.022486" lat="14.675722">
                <ele>25.131714</ele>
                <time>2008-12-13T06:19:32Z</time>
            </trkpt>
            <trkpt lon="101.022615" lat="14.675247">
                <ele>23.208984</ele>
                <time>2008-12-13T06:19:41Z</time>
            </trkpt>
            <trkpt lon="101.022605" lat="14.675188">
                <ele>23.689575</ele>
                <time>2008-12-13T06:19:42Z</time>
            </trkpt>
            <trkpt lon="101.022570" lat="14.675013">
                <ele>23.689575</ele>
                <time>2008-12-13T06:19:45Z</time>
            </trkpt>
            <trkpt lon="101.022711" lat="14.674609">
                <ele>25.131714</ele>
                <time>2008-12-13T06:19:53Z</time>
            </trkpt>
            <trkpt lon="101.022704" lat="14.674557">
                <ele>25.131714</ele>
                <time>2008-12-13T06:19:54Z</time>
            </trkpt>
            <trkpt lon="101.022549" lat="14.674370">
                <ele>25.612305</ele>
                <time>2008-12-13T06:20:00Z</time>
            </trkpt>
            <trkpt lon="101.022446" lat="14.674150">
                <ele>26.573608</ele>
                <time>2008-12-13T06:20:05Z</time>
            </trkpt>
            <trkpt lon="101.022470" lat="14.673840">
                <ele>27.054321</ele>
                <time>2008-12-13T06:20:11Z</time>
            </trkpt>
            <trkpt lon="101.022391" lat="14.673678">
                <ele>27.534912</ele>
                <time>2008-12-13T06:20:15Z</time>
            </trkpt>
            <trkpt lon="101.022121" lat="14.673476">
                <ele>28.976929</ele>
                <time>2008-12-13T06:20:21Z</time>
            </trkpt>
            <trkpt lon="101.022036" lat="14.673157">
                <ele>29.938110</ele>
                <time>2008-12-13T06:20:26Z</time>
            </trkpt>
            <trkpt lon="101.022106" lat="14.672742">
                <ele>28.015503</ele>
                <time>2008-12-13T06:20:32Z</time>
            </trkpt>
            <trkpt lon="101.022106" lat="14.672467">
                <ele>28.496216</ele>
                <time>2008-12-13T06:20:36Z</time>
            </trkpt>
            <trkpt lon="101.022012" lat="14.672234">
                <ele>28.015503</ele>
                <time>2008-12-13T06:20:40Z</time>
            </trkpt>
            <trkpt lon="101.021938" lat="14.672139">
                <ele>28.015503</ele>
                <time>2008-12-13T06:20:42Z</time>
            </trkpt>
            <trkpt lon="101.021801" lat="14.671714">
                <ele>27.054321</ele>
                <time>2008-12-13T06:20:52Z</time>
            </trkpt>
            <trkpt lon="101.021744" lat="14.671656">
                <ele>29.457520</ele>
                <time>2008-12-13T06:21:06Z</time>
            </trkpt>
            <trkpt lon="101.021773" lat="14.671695">
                <ele>27.054321</ele>
                <time>2008-12-13T06:21:29Z</time>
            </trkpt>
            <trkpt lon="101.021806" lat="14.671735">
                <ele>25.131714</ele>
                <time>2008-12-13T06:21:33Z</time>
            </trkpt>
            <trkpt lon="101.021862" lat="14.671957">
                <ele>19.363770</ele>
                <time>2008-12-13T06:21:49Z</time>
            </trkpt>
            <trkpt lon="101.021858" lat="14.672068">
                <ele>21.286377</ele>
                <time>2008-12-13T06:22:03Z</time>
            </trkpt>
            <trkpt lon="101.021850" lat="14.672074">
                <ele>21.766968</ele>
                <time>2008-12-13T06:22:04Z</time>
            </trkpt>
            <trkpt lon="101.021755" lat="14.672103">
                <ele>22.728272</ele>
                <time>2008-12-13T06:22:10Z</time>
            </trkpt>
            <trkpt lon="101.021379" lat="14.672116">
                <ele>23.689575</ele>
                <time>2008-12-13T06:22:23Z</time>
            </trkpt>
            <trkpt lon="101.021228" lat="14.672046">
                <ele>24.651001</ele>
                <time>2008-12-13T06:22:28Z</time>
            </trkpt>
            <trkpt lon="101.021167" lat="14.671941">
                <ele>24.651001</ele>
                <time>2008-12-13T06:22:32Z</time>
            </trkpt>
            <trkpt lon="101.020894" lat="14.671896">
                <ele>24.170288</ele>
                <time>2008-12-13T06:22:39Z</time>
            </trkpt>
            <trkpt lon="101.020391" lat="14.671943">
                <ele>25.131714</ele>
                <time>2008-12-13T06:22:53Z</time>
            </trkpt>
            <trkpt lon="101.020189" lat="14.671923">
                <ele>27.054321</ele>
                <time>2008-12-13T06:23:05Z</time>
            </trkpt>
            <trkpt lon="101.020125" lat="14.671942">
                <ele>27.054321</ele>
                <time>2008-12-13T06:23:19Z</time>
            </trkpt>
            <trkpt lon="101.019928" lat="14.672009">
                <ele>26.092896</ele>
                <time>2008-12-13T06:23:36Z</time>
            </trkpt>
            <trkpt lon="101.019856" lat="14.672030">
                <ele>25.612305</ele>
                <time>2008-12-13T06:23:46Z</time>
            </trkpt>
            <trkpt lon="101.019756" lat="14.672054">
                <ele>26.573608</ele>
                <time>2008-12-13T06:23:59Z</time>
            </trkpt>
            <trkpt lon="101.019706" lat="14.672003">
                <ele>28.496216</ele>
                <time>2008-12-13T06:24:13Z</time>
            </trkpt>
            <trkpt lon="101.019712" lat="14.671967">
                <ele>30.899536</ele>
                <time>2008-12-13T06:24:28Z</time>
            </trkpt>
            <trkpt lon="101.019705" lat="14.671949">
                <ele>31.860718</ele>
                <time>2008-12-13T06:24:39Z</time>
            </trkpt>
            <trkpt lon="101.019655" lat="14.671909">
                <ele>30.899536</ele>
                <time>2008-12-13T06:24:42Z</time>
            </trkpt>
            <trkpt lon="101.019305" lat="14.671913">
                <ele>29.457520</ele>
                <time>2008-12-13T06:24:51Z</time>
            </trkpt>
            <trkpt lon="101.019096" lat="14.672010">
                <ele>27.534912</ele>
                <time>2008-12-13T06:24:57Z</time>
            </trkpt>
            <trkpt lon="101.018940" lat="14.672089">
                <ele>27.534912</ele>
                <time>2008-12-13T06:25:01Z</time>
            </trkpt>
            <trkpt lon="101.018624" lat="14.672331">
                <ele>24.170288</ele>
                <time>2008-12-13T06:25:13Z</time>
            </trkpt>
            <trkpt lon="101.018620" lat="14.672462">
                <ele>22.728272</ele>
                <time>2008-12-13T06:25:17Z</time>
            </trkpt>
            <trkpt lon="101.018418" lat="14.672553">
                <ele>20.805664</ele>
                <time>2008-12-13T06:25:24Z</time>
            </trkpt>
            <trkpt lon="101.018214" lat="14.672645">
                <ele>20.324951</ele>
                <time>2008-12-13T06:25:29Z</time>
            </trkpt>
            <trkpt lon="101.017763" lat="14.672799">
                <ele>20.324951</ele>
                <time>2008-12-13T06:25:39Z</time>
            </trkpt>
            <trkpt lon="101.017217" lat="14.672987">
                <ele>20.324951</ele>
                <time>2008-12-13T06:25:54Z</time>
            </trkpt>
            <trkpt lon="101.017028" lat="14.673053">
                <ele>20.805664</ele>
                <time>2008-12-13T06:25:59Z</time>
            </trkpt>
            <trkpt lon="101.016373" lat="14.673295">
                <ele>21.286377</ele>
                <time>2008-12-13T06:26:16Z</time>
            </trkpt>
            <trkpt lon="101.015991" lat="14.673441">
                <ele>21.286377</ele>
                <time>2008-12-13T06:26:27Z</time>
            </trkpt>
            <trkpt lon="101.015529" lat="14.673611">
                <ele>21.766968</ele>
                <time>2008-12-13T06:26:41Z</time>
            </trkpt>
            <trkpt lon="101.015241" lat="14.673716">
                <ele>22.247559</ele>
                <time>2008-12-13T06:26:51Z</time>
            </trkpt>
            <trkpt lon="101.014731" lat="14.673919">
                <ele>22.247559</ele>
                <time>2008-12-13T06:27:05Z</time>
            </trkpt>
            <trkpt lon="101.014420" lat="14.674057">
                <ele>22.728272</ele>
                <time>2008-12-13T06:27:13Z</time>
            </trkpt>
            <trkpt lon="101.014366" lat="14.674180">
                <ele>23.208984</ele>
                <time>2008-12-13T06:27:17Z</time>
            </trkpt>
            <trkpt lon="101.013699" lat="14.674642">
                <ele>22.728272</ele>
                <time>2008-12-13T06:27:36Z</time>
            </trkpt>
            <trkpt lon="101.013242" lat="14.674985">
                <ele>23.208984</ele>
                <time>2008-12-13T06:27:49Z</time>
            </trkpt>
            <trkpt lon="101.013102" lat="14.675091">
                <ele>22.728272</ele>
                <time>2008-12-13T06:27:53Z</time>
            </trkpt>
            <trkpt lon="101.012904" lat="14.675204">
                <ele>23.208984</ele>
                <time>2008-12-13T06:27:58Z</time>
            </trkpt>
            <trkpt lon="101.012753" lat="14.675284">
                <ele>23.689575</ele>
                <time>2008-12-13T06:28:02Z</time>
            </trkpt>
            <trkpt lon="101.012650" lat="14.675460">
                <ele>24.170288</ele>
                <time>2008-12-13T06:28:07Z</time>
            </trkpt>
            <trkpt lon="101.012592" lat="14.675868">
                <ele>23.689575</ele>
                <time>2008-12-13T06:28:19Z</time>
            </trkpt>
            <trkpt lon="101.012572" lat="14.675873">
                <ele>23.689575</ele>
                <time>2008-12-13T06:28:22Z</time>
            </trkpt>
            <trkpt lon="101.012665" lat="14.675520">
                <ele>24.651001</ele>
                <time>2008-12-13T06:28:34Z</time>
            </trkpt>
            <trkpt lon="101.012856" lat="14.675227">
                <ele>23.208984</ele>
                <time>2008-12-13T06:28:46Z</time>
            </trkpt>
            <trkpt lon="101.012947" lat="14.675192">
                <ele>23.208984</ele>
                <time>2008-12-13T06:28:50Z</time>
            </trkpt>
            <trkpt lon="101.012924" lat="14.675158">
                <ele>22.728272</ele>
                <time>2008-12-13T06:28:57Z</time>
            </trkpt>
            <trkpt lon="101.012753" lat="14.675262">
                <ele>23.689575</ele>
                <time>2008-12-13T06:29:03Z</time>
            </trkpt>
            <trkpt lon="101.012660" lat="14.675163">
                <ele>24.170288</ele>
                <time>2008-12-13T06:29:08Z</time>
            </trkpt>
            <trkpt lon="101.012652" lat="14.675039">
                <ele>23.689575</ele>
                <time>2008-12-13T06:29:11Z</time>
            </trkpt>
            <trkpt lon="101.012612" lat="14.674686">
                <ele>23.689575</ele>
                <time>2008-12-13T06:29:21Z</time>
            </trkpt>
            <trkpt lon="101.012431" lat="14.674641">
                <ele>22.728272</ele>
                <time>2008-12-13T06:29:25Z</time>
            </trkpt>
            <trkpt lon="101.012118" lat="14.674652">
                <ele>22.728272</ele>
                <time>2008-12-13T06:29:31Z</time>
            </trkpt>
            <trkpt lon="101.011734" lat="14.674732">
                <ele>22.247559</ele>
                <time>2008-12-13T06:29:41Z</time>
            </trkpt>
            <trkpt lon="101.011568" lat="14.674866">
                <ele>21.286377</ele>
                <time>2008-12-13T06:29:46Z</time>
            </trkpt>
            <trkpt lon="101.011320" lat="14.674912">
                <ele>20.324951</ele>
                <time>2008-12-13T06:29:52Z</time>
            </trkpt>
            <trkpt lon="101.011159" lat="14.674977">
                <ele>20.324951</ele>
                <time>2008-12-13T06:29:56Z</time>
            </trkpt>
            <trkpt lon="101.010754" lat="14.675250">
                <ele>20.805664</ele>
                <time>2008-12-13T06:30:08Z</time>
            </trkpt>
            <trkpt lon="101.010669" lat="14.675294">
                <ele>20.324951</ele>
                <time>2008-12-13T06:30:10Z</time>
            </trkpt>
            <trkpt lon="101.010428" lat="14.675545">
                <ele>19.363770</ele>
                <time>2008-12-13T06:30:17Z</time>
            </trkpt>
            <trkpt lon="101.010277" lat="14.675651">
                <ele>19.363770</ele>
                <time>2008-12-13T06:30:21Z</time>
            </trkpt>
            <trkpt lon="101.009876" lat="14.675999">
                <ele>20.324951</ele>
                <time>2008-12-13T06:30:33Z</time>
            </trkpt>
            <trkpt lon="101.009543" lat="14.676210">
                <ele>19.844360</ele>
                <time>2008-12-13T06:30:43Z</time>
            </trkpt>
            <trkpt lon="101.009403" lat="14.676301">
                <ele>19.844360</ele>
                <time>2008-12-13T06:30:47Z</time>
            </trkpt>
            <trkpt lon="101.008921" lat="14.676759">
                <ele>19.363770</ele>
                <time>2008-12-13T06:31:02Z</time>
            </trkpt>
            <trkpt lon="101.008435" lat="14.677083">
                <ele>18.883057</ele>
                <time>2008-12-13T06:31:16Z</time>
            </trkpt>
            <trkpt lon="101.008137" lat="14.677263">
                <ele>18.402344</ele>
                <time>2008-12-13T06:31:27Z</time>
            </trkpt>
            <trkpt lon="101.007669" lat="14.677386">
                <ele>19.363770</ele>
                <time>2008-12-13T06:31:41Z</time>
            </trkpt>
            <trkpt lon="101.007215" lat="14.677412">
                <ele>21.286377</ele>
                <time>2008-12-13T06:31:56Z</time>
            </trkpt>
            <trkpt lon="101.007069" lat="14.677390">
                <ele>21.286377</ele>
                <time>2008-12-13T06:32:00Z</time>
            </trkpt>
            <trkpt lon="101.006509" lat="14.677502">
                <ele>26.573608</ele>
                <time>2008-12-13T06:32:14Z</time>
            </trkpt>
            <trkpt lon="101.006123" lat="14.677529">
                <ele>30.418823</ele>
                <time>2008-12-13T06:32:30Z</time>
            </trkpt>
            <trkpt lon="101.005619" lat="14.677455">
                <ele>34.264160</ele>
                <time>2008-12-13T06:32:44Z</time>
            </trkpt>
            <trkpt lon="101.005535" lat="14.677430">
                <ele>34.744873</ele>
                <time>2008-12-13T06:32:46Z</time>
            </trkpt>
            <trkpt lon="101.005405" lat="14.677398">
                <ele>36.667481</ele>
                <time>2008-12-13T06:32:49Z</time>
            </trkpt>
            <trkpt lon="101.005254" lat="14.677330">
                <ele>37.628662</ele>
                <time>2008-12-13T06:32:53Z</time>
            </trkpt>
            <trkpt lon="101.005069" lat="14.676936">
                <ele>35.225464</ele>
                <time>2008-12-13T06:33:05Z</time>
            </trkpt>
            <trkpt lon="101.004975" lat="14.676458">
                <ele>30.899536</ele>
                <time>2008-12-13T06:33:18Z</time>
            </trkpt>
            <trkpt lon="101.004779" lat="14.675856">
                <ele>27.534912</ele>
                <time>2008-12-13T06:33:33Z</time>
            </trkpt>
            <trkpt lon="101.004751" lat="14.675772">
                <ele>27.534912</ele>
                <time>2008-12-13T06:33:35Z</time>
            </trkpt>
            <trkpt lon="101.004592" lat="14.675228">
                <ele>26.092896</ele>
                <time>2008-12-13T06:33:50Z</time>
            </trkpt>
            <trkpt lon="101.004410" lat="14.674651">
                <ele>23.689575</ele>
                <time>2008-12-13T06:34:07Z</time>
            </trkpt>
            <trkpt lon="101.004325" lat="14.674367">
                <ele>23.689575</ele>
                <time>2008-12-13T06:34:19Z</time>
            </trkpt>
            <trkpt lon="101.004287" lat="14.674339">
                <ele>25.131714</ele>
                <time>2008-12-13T06:34:29Z</time>
            </trkpt>
            <trkpt lon="101.004200" lat="14.674352">
                <ele>24.170288</ele>
                <time>2008-12-13T06:34:43Z</time>
            </trkpt>
            <trkpt lon="101.004005" lat="14.674424">
                <ele>22.728272</ele>
                <time>2008-12-13T06:35:01Z</time>
            </trkpt>
            <trkpt lon="101.003900" lat="14.674495">
                <ele>23.208984</ele>
                <time>2008-12-13T06:35:14Z</time>
            </trkpt>
            <trkpt lon="101.003820" lat="14.674502">
                <ele>23.208984</ele>
                <time>2008-12-13T06:35:31Z</time>
            </trkpt>
            <trkpt lon="101.003820" lat="14.674443">
                <ele>22.247559</ele>
                <time>2008-12-13T06:35:51Z</time>
            </trkpt>
            <trkpt lon="101.003820" lat="14.674439">
                <ele>22.728272</ele>
                <time>2008-12-13T06:35:55Z</time>
            </trkpt>
            <trkpt lon="101.003800" lat="14.674375">
                <ele>23.208984</ele>
                <time>2008-12-13T06:36:07Z</time>
            </trkpt>
            <trkpt lon="101.003740" lat="14.674326">
                <ele>23.689575</ele>
                <time>2008-12-13T06:36:22Z</time>
            </trkpt>
            <trkpt lon="101.003677" lat="14.674253">
                <ele>26.573608</ele>
                <time>2008-12-13T06:36:38Z</time>
            </trkpt>
            <trkpt lon="101.003655" lat="14.674233">
                <ele>27.054321</ele>
                <time>2008-12-13T06:36:41Z</time>
            </trkpt>
            <trkpt lon="101.003608" lat="14.674195">
                <ele>27.534912</ele>
                <time>2008-12-13T06:36:48Z</time>
            </trkpt>
            <trkpt lon="101.003416" lat="14.674312">
                <ele>29.938110</ele>
                <time>2008-12-13T06:37:07Z</time>
            </trkpt>
            <trkpt lon="101.003318" lat="14.674444">
                <ele>28.496216</ele>
                <time>2008-12-13T06:37:24Z</time>
            </trkpt>
            <trkpt lon="101.003293" lat="14.674456">
                <ele>28.015503</ele>
                <time>2008-12-13T06:37:28Z</time>
            </trkpt>
            <trkpt lon="101.003134" lat="14.674416">
                <ele>26.092896</ele>
                <time>2008-12-13T06:37:44Z</time>
            </trkpt>
            <trkpt lon="101.003042" lat="14.674414">
                <ele>28.015503</ele>
                <time>2008-12-13T06:37:58Z</time>
            </trkpt>
            <trkpt lon="101.002977" lat="14.674437">
                <ele>23.208984</ele>
                <time>2008-12-13T06:38:14Z</time>
            </trkpt>
            <trkpt lon="101.002918" lat="14.674459">
                <ele>17.441162</ele>
                <time>2008-12-13T06:38:36Z</time>
            </trkpt>
            <trkpt lon="101.002908" lat="14.674466">
                <ele>17.441162</ele>
                <time>2008-12-13T06:38:37Z</time>
            </trkpt>
            <trkpt lon="101.002730" lat="14.674373">
                <ele>13.595825</ele>
                <time>2008-12-13T06:38:54Z</time>
            </trkpt>
            <trkpt lon="101.002683" lat="14.674238">
                <ele>19.363770</ele>
                <time>2008-12-13T06:39:11Z</time>
            </trkpt>
            <trkpt lon="101.002624" lat="14.674272">
                <ele>28.976929</ele>
                <time>2008-12-13T06:39:45Z</time>
            </trkpt>
            <trkpt lon="101.002629" lat="14.674177">
                <ele>29.457520</ele>
                <time>2008-12-13T06:40:03Z</time>
            </trkpt>
            <trkpt lon="101.002607" lat="14.674103">
                <ele>24.651001</ele>
                <time>2008-12-13T06:40:18Z</time>
            </trkpt>
            <trkpt lon="101.002581" lat="14.674067">
                <ele>22.728272</ele>
                <time>2008-12-13T06:40:35Z</time>
            </trkpt>
            <trkpt lon="101.002558" lat="14.674024">
                <ele>19.363770</ele>
                <time>2008-12-13T06:40:53Z</time>
            </trkpt>
            <trkpt lon="101.002555" lat="14.674002">
                <ele>20.805664</ele>
                <time>2008-12-13T06:41:09Z</time>
            </trkpt>
            <trkpt lon="101.002478" lat="14.673965">
                <ele>28.496216</ele>
                <time>2008-12-13T06:41:22Z</time>
            </trkpt>
            <trkpt lon="101.002412" lat="14.673956">
                <ele>29.938110</ele>
                <time>2008-12-13T06:41:33Z</time>
            </trkpt>
            <trkpt lon="101.002365" lat="14.673916">
                <ele>29.938110</ele>
                <time>2008-12-13T06:41:46Z</time>
            </trkpt>
            <trkpt lon="101.002291" lat="14.673900">
                <ele>27.534912</ele>
                <time>2008-12-13T06:42:01Z</time>
            </trkpt>
            <trkpt lon="101.002236" lat="14.673889">
                <ele>22.728272</ele>
                <time>2008-12-13T06:42:08Z</time>
            </trkpt>
            <trkpt lon="101.002166" lat="14.673853">
                <ele>22.728272</ele>
                <time>2008-12-13T06:42:23Z</time>
            </trkpt>
            <trkpt lon="101.002165" lat="14.673779">
                <ele>21.766968</ele>
                <time>2008-12-13T06:42:39Z</time>
            </trkpt>
            <trkpt lon="101.002156" lat="14.673721">
                <ele>21.766968</ele>
                <time>2008-12-13T06:42:43Z</time>
            </trkpt>
            <trkpt lon="101.002098" lat="14.673455">
                <ele>21.286377</ele>
                <time>2008-12-13T06:42:56Z</time>
            </trkpt>
            <trkpt lon="101.002087" lat="14.673321">
                <ele>21.766968</ele>
                <time>2008-12-13T06:43:03Z</time>
            </trkpt>
            <trkpt lon="101.002060" lat="14.673307">
                <ele>21.766968</ele>
                <time>2008-12-13T06:43:08Z</time>
            </trkpt>
            <trkpt lon="101.002015" lat="14.673319">
                <ele>22.247559</ele>
                <time>2008-12-13T06:43:12Z</time>
            </trkpt>
            <trkpt lon="101.001938" lat="14.673358">
                <ele>22.728272</ele>
                <time>2008-12-13T06:43:21Z</time>
            </trkpt>
            <trkpt lon="101.001786" lat="14.673491">
                <ele>23.208984</ele>
                <time>2008-12-13T06:43:35Z</time>
            </trkpt>
            <trkpt lon="101.001651" lat="14.673511">
                <ele>23.689575</ele>
                <time>2008-12-13T06:43:48Z</time>
            </trkpt>
            <trkpt lon="101.001572" lat="14.673479">
                <ele>22.728272</ele>
                <time>2008-12-13T06:43:58Z</time>
            </trkpt>
            <trkpt lon="101.001349" lat="14.673209">
                <ele>22.728272</ele>
                <time>2008-12-13T06:44:14Z</time>
            </trkpt>
            <trkpt lon="101.001045" lat="14.672877">
                <ele>21.766968</ele>
                <time>2008-12-13T06:44:32Z</time>
            </trkpt>
            <trkpt lon="101.001029" lat="14.672858">
                <ele>21.766968</ele>
                <time>2008-12-13T06:44:33Z</time>
            </trkpt>
            <trkpt lon="101.001012" lat="14.672827">
                <ele>21.766968</ele>
                <time>2008-12-13T06:44:35Z</time>
            </trkpt>
            <trkpt lon="101.000748" lat="14.672572">
                <ele>22.247559</ele>
                <time>2008-12-13T06:44:49Z</time>
            </trkpt>
            <trkpt lon="101.000304" lat="14.672193">
                <ele>23.208984</ele>
                <time>2008-12-13T06:45:06Z</time>
            </trkpt>
            <trkpt lon="100.999877" lat="14.671818">
                <ele>23.689575</ele>
                <time>2008-12-13T06:45:21Z</time>
            </trkpt>
            <trkpt lon="100.999392" lat="14.671559">
                <ele>24.170288</ele>
                <time>2008-12-13T06:45:37Z</time>
            </trkpt>
            <trkpt lon="100.999052" lat="14.671429">
                <ele>23.689575</ele>
                <time>2008-12-13T06:45:51Z</time>
            </trkpt>
            <trkpt lon="100.998960" lat="14.671396">
                <ele>23.689575</ele>
                <time>2008-12-13T06:46:03Z</time>
            </trkpt>
            <trkpt lon="100.998865" lat="14.671360">
                <ele>23.689575</ele>
                <time>2008-12-13T06:46:19Z</time>
            </trkpt>
            <trkpt lon="100.998857" lat="14.671360">
                <ele>23.208984</ele>
                <time>2008-12-13T06:46:47Z</time>
            </trkpt>
            <trkpt lon="100.998862" lat="14.671276">
                <ele>24.170288</ele>
                <time>2008-12-13T06:48:31Z</time>
            </trkpt>
            <trkpt lon="100.998864" lat="14.671263">
                <ele>23.689575</ele>
                <time>2008-12-13T06:48:34Z</time>
            </trkpt>
            <trkpt lon="100.998822" lat="14.670940">
                <ele>24.651001</ele>
                <time>2008-12-13T06:48:48Z</time>
            </trkpt>
            <trkpt lon="100.998740" lat="14.670612">
                <ele>24.651001</ele>
                <time>2008-12-13T06:49:00Z</time>
            </trkpt>
            <trkpt lon="100.998472" lat="14.670332">
                <ele>22.728272</ele>
                <time>2008-12-13T06:49:11Z</time>
            </trkpt>
            <trkpt lon="100.997923" lat="14.669972">
                <ele>21.766968</ele>
                <time>2008-12-13T06:49:26Z</time>
            </trkpt>
            <trkpt lon="100.997844" lat="14.669925">
                <ele>21.766968</ele>
                <time>2008-12-13T06:49:28Z</time>
            </trkpt>
            <trkpt lon="100.997595" lat="14.669792">
                <ele>21.766968</ele>
                <time>2008-12-13T06:49:34Z</time>
            </trkpt>
            <trkpt lon="100.997261" lat="14.669805">
                <ele>22.247559</ele>
                <time>2008-12-13T06:49:41Z</time>
            </trkpt>
            <trkpt lon="100.996191" lat="14.670082">
                <ele>24.170288</ele>
                <time>2008-12-13T06:50:03Z</time>
            </trkpt>
            <trkpt lon="100.995297" lat="14.670224">
                <ele>24.651001</ele>
                <time>2008-12-13T06:50:18Z</time>
            </trkpt>
            <trkpt lon="100.995325" lat="14.670084">
                <ele>26.092896</ele>
                <time>2008-12-13T06:50:26Z</time>
            </trkpt>
            <trkpt lon="100.995334" lat="14.670040">
                <ele>26.092896</ele>
                <time>2008-12-13T06:50:27Z</time>
            </trkpt>
            <trkpt lon="100.995450" lat="14.669149">
                <ele>26.092896</ele>
                <time>2008-12-13T06:50:43Z</time>
            </trkpt>
            <trkpt lon="100.995589" lat="14.668051">
                <ele>27.054321</ele>
                <time>2008-12-13T06:51:00Z</time>
            </trkpt>
            <trkpt lon="100.995702" lat="14.666983">
                <ele>27.534912</ele>
                <time>2008-12-13T06:51:17Z</time>
            </trkpt>
            <trkpt lon="100.995717" lat="14.665514">
                <ele>27.054321</ele>
                <time>2008-12-13T06:51:39Z</time>
            </trkpt>
            <trkpt lon="100.995379" lat="14.664248">
                <ele>27.054321</ele>
                <time>2008-12-13T06:51:57Z</time>
            </trkpt>
            <trkpt lon="100.994970" lat="14.662686">
                <ele>25.131714</ele>
                <time>2008-12-13T06:52:19Z</time>
            </trkpt>
            <trkpt lon="100.994611" lat="14.661160">
                <ele>23.689575</ele>
                <time>2008-12-13T06:52:40Z</time>
            </trkpt>
            <trkpt lon="100.994552" lat="14.659818">
                <ele>25.131714</ele>
                <time>2008-12-13T06:52:59Z</time>
            </trkpt>
            <trkpt lon="100.994702" lat="14.658347">
                <ele>24.170288</ele>
                <time>2008-12-13T06:53:20Z</time>
            </trkpt>
            <trkpt lon="100.994726" lat="14.657237">
                <ele>23.208984</ele>
                <time>2008-12-13T06:53:36Z</time>
            </trkpt>
            <trkpt lon="100.994701" lat="14.656970">
                <ele>23.689575</ele>
                <time>2008-12-13T06:53:43Z</time>
            </trkpt>
            <trkpt lon="100.994630" lat="14.656967">
                <ele>24.170288</ele>
                <time>2008-12-13T06:53:54Z</time>
            </trkpt>
            <trkpt lon="100.994630" lat="14.656967">
                <ele>30.899536</ele>
                <time>2008-12-13T06:56:14Z</time>
            </trkpt>
            <trkpt lon="100.994630" lat="14.656967">
                <ele>31.380127</ele>
                <time>2008-12-13T06:56:30Z</time>
            </trkpt>
            <trkpt lon="100.994529" lat="14.657038">
                <ele>31.380127</ele>
                <time>2008-12-13T06:56:35Z</time>
            </trkpt>
            <trkpt lon="100.994335" lat="14.657174">
                <ele>31.860718</ele>
                <time>2008-12-13T06:56:41Z</time>
            </trkpt>
            <trkpt lon="100.994141" lat="14.657305">
                <ele>32.341553</ele>
                <time>2008-12-13T06:56:46Z</time>
            </trkpt>
            <trkpt lon="100.994139" lat="14.657513">
                <ele>31.380127</ele>
                <time>2008-12-13T06:56:52Z</time>
            </trkpt>
            <trkpt lon="100.994139" lat="14.657989">
                <ele>30.418823</ele>
                <time>2008-12-13T06:57:02Z</time>
            </trkpt>
            <trkpt lon="100.994139" lat="14.658081">
                <ele>29.938110</ele>
                <time>2008-12-13T06:57:04Z</time>
            </trkpt>
            <trkpt lon="100.994113" lat="14.658302">
                <ele>28.976929</ele>
                <time>2008-12-13T06:57:08Z</time>
            </trkpt>
            <trkpt lon="100.993579" lat="14.659011">
                <ele>24.651001</ele>
                <time>2008-12-13T06:57:23Z</time>
            </trkpt>
            <trkpt lon="100.993197" lat="14.659464">
                <ele>23.208984</ele>
                <time>2008-12-13T06:57:33Z</time>
            </trkpt>
            <trkpt lon="100.992888" lat="14.660097">
                <ele>22.247559</ele>
                <time>2008-12-13T06:57:45Z</time>
            </trkpt>
            <trkpt lon="100.992732" lat="14.660451">
                <ele>22.728272</ele>
                <time>2008-12-13T06:57:52Z</time>
            </trkpt>
            <trkpt lon="100.992262" lat="14.661078">
                <ele>20.805664</ele>
                <time>2008-12-13T06:58:05Z</time>
            </trkpt>
            <trkpt lon="100.991705" lat="14.661647">
                <ele>22.728272</ele>
                <time>2008-12-13T06:58:19Z</time>
            </trkpt>
            <trkpt lon="100.991142" lat="14.662351">
                <ele>23.689575</ele>
                <time>2008-12-13T06:58:34Z</time>
            </trkpt>
            <trkpt lon="100.990691" lat="14.662600">
                <ele>26.092896</ele>
                <time>2008-12-13T06:58:45Z</time>
            </trkpt>
            <trkpt lon="100.990629" lat="14.662615">
                <ele>28.976929</ele>
                <time>2008-12-13T06:58:56Z</time>
            </trkpt>
            <trkpt lon="100.990420" lat="14.662667">
                <ele>25.131714</ele>
                <time>2008-12-13T07:00:22Z</time>
            </trkpt>
            <trkpt lon="100.990162" lat="14.662828">
                <ele>23.689575</ele>
                <time>2008-12-13T07:00:33Z</time>
            </trkpt>
            <trkpt lon="100.990148" lat="14.662860">
                <ele>23.689575</ele>
                <time>2008-12-13T07:00:35Z</time>
            </trkpt>
            <trkpt lon="100.990148" lat="14.663146">
                <ele>25.131714</ele>
                <time>2008-12-13T07:00:41Z</time>
            </trkpt>
            <trkpt lon="100.990060" lat="14.663448">
                <ele>25.612305</ele>
                <time>2008-12-13T07:00:47Z</time>
            </trkpt>
            <trkpt lon="100.989204" lat="14.664040">
                <ele>28.496216</ele>
                <time>2008-12-13T07:01:06Z</time>
            </trkpt>
            <trkpt lon="100.988947" lat="14.664172">
                <ele>28.496216</ele>
                <time>2008-12-13T07:01:11Z</time>
            </trkpt>
            <trkpt lon="100.987967" lat="14.664263">
                <ele>28.496216</ele>
                <time>2008-12-13T07:01:26Z</time>
            </trkpt>
            <trkpt lon="100.987301" lat="14.664388">
                <ele>28.496216</ele>
                <time>2008-12-13T07:01:36Z</time>
            </trkpt>
            <trkpt lon="100.987150" lat="14.664546">
                <ele>28.496216</ele>
                <time>2008-12-13T07:01:40Z</time>
            </trkpt>
            <trkpt lon="100.986717" lat="14.665202">
                <ele>28.976929</ele>
                <time>2008-12-13T07:01:53Z</time>
            </trkpt>
            <trkpt lon="100.985934" lat="14.665614">
                <ele>30.418823</ele>
                <time>2008-12-13T07:02:07Z</time>
            </trkpt>
            <trkpt lon="100.985878" lat="14.665762">
                <ele>30.899536</ele>
                <time>2008-12-13T07:02:12Z</time>
            </trkpt>
            <trkpt lon="100.985924" lat="14.665853">
                <ele>30.899536</ele>
                <time>2008-12-13T07:02:14Z</time>
            </trkpt>
            <trkpt lon="100.985703" lat="14.666190">
                <ele>30.899536</ele>
                <time>2008-12-13T07:02:22Z</time>
            </trkpt>
            <trkpt lon="100.985602" lat="14.666011">
                <ele>29.938110</ele>
                <time>2008-12-13T07:02:29Z</time>
            </trkpt>
            <trkpt lon="100.985594" lat="14.665997">
                <ele>29.938110</ele>
                <time>2008-12-13T07:02:30Z</time>
            </trkpt>
            <trkpt lon="100.985490" lat="14.665852">
                <ele>28.496216</ele>
                <time>2008-12-13T07:02:36Z</time>
            </trkpt>
            <trkpt lon="100.985375" lat="14.665841">
                <ele>28.015503</ele>
                <time>2008-12-13T07:02:41Z</time>
            </trkpt>
            <trkpt lon="100.985228" lat="14.665856">
                <ele>28.015503</ele>
                <time>2008-12-13T07:02:45Z</time>
            </trkpt>
            <trkpt lon="100.985048" lat="14.666140">
                <ele>28.496216</ele>
                <time>2008-12-13T07:02:52Z</time>
            </trkpt>
            <trkpt lon="100.985153" lat="14.666630">
                <ele>29.457520</ele>
                <time>2008-12-13T07:03:01Z</time>
            </trkpt>
            <trkpt lon="100.985036" lat="14.666791">
                <ele>29.457520</ele>
                <time>2008-12-13T07:03:08Z</time>
            </trkpt>
            <trkpt lon="100.984777" lat="14.666882">
                <ele>29.457520</ele>
                <time>2008-12-13T07:03:13Z</time>
            </trkpt>
            <trkpt lon="100.984116" lat="14.667460">
                <ele>30.418823</ele>
                <time>2008-12-13T07:03:28Z</time>
            </trkpt>
            <trkpt lon="100.983961" lat="14.667723">
                <ele>29.938110</ele>
                <time>2008-12-13T07:03:33Z</time>
            </trkpt>
            <trkpt lon="100.983468" lat="14.668625">
                <ele>29.457520</ele>
                <time>2008-12-13T07:03:50Z</time>
            </trkpt>
            <trkpt lon="100.982809" lat="14.669412">
                <ele>29.457520</ele>
                <time>2008-12-13T07:04:06Z</time>
            </trkpt>
            <trkpt lon="100.982365" lat="14.669939">
                <ele>29.457520</ele>
                <time>2008-12-13T07:04:17Z</time>
            </trkpt>
            <trkpt lon="100.982327" lat="14.670334">
                <ele>29.457520</ele>
                <time>2008-12-13T07:04:24Z</time>
            </trkpt>
            <trkpt lon="100.982165" lat="14.670588">
                <ele>29.938110</ele>
                <time>2008-12-13T07:04:32Z</time>
            </trkpt>
            <trkpt lon="100.982165" lat="14.670588">
                <ele>30.418823</ele>
                <time>2008-12-13T07:04:44Z</time>
            </trkpt>
            <trkpt lon="100.982165" lat="14.670588">
                <ele>30.899536</ele>
                <time>2008-12-13T07:04:59Z</time>
            </trkpt>
            <trkpt lon="100.982165" lat="14.670588">
                <ele>32.822266</ele>
                <time>2008-12-13T07:05:32Z</time>
            </trkpt>
            <trkpt lon="100.982165" lat="14.670588">
                <ele>31.380127</ele>
                <time>2008-12-13T07:06:10Z</time>
            </trkpt>
            <trkpt lon="100.982165" lat="14.670588">
                <ele>30.418823</ele>
                <time>2008-12-13T07:07:03Z</time>
            </trkpt>
            <trkpt lon="100.982165" lat="14.670588">
                <ele>31.860718</ele>
                <time>2008-12-13T07:07:56Z</time>
            </trkpt>
            <trkpt lon="100.982165" lat="14.670588">
                <ele>32.341553</ele>
                <time>2008-12-13T07:08:15Z</time>
            </trkpt>
            <trkpt lon="100.982165" lat="14.670588">
                <ele>29.457520</ele>
                <time>2008-12-13T07:08:40Z</time>
            </trkpt>
            <trkpt lon="100.982165" lat="14.670588">
                <ele>28.976929</ele>
                <time>2008-12-13T07:08:51Z</time>
            </trkpt>
            <trkpt lon="100.982165" lat="14.670588">
                <ele>28.976929</ele>
                <time>2008-12-13T07:09:06Z</time>
            </trkpt>
            <trkpt lon="100.982165" lat="14.670588">
                <ele>31.380127</ele>
                <time>2008-12-13T07:09:17Z</time>
            </trkpt>
            <trkpt lon="100.982165" lat="14.670588">
                <ele>29.457520</ele>
                <time>2008-12-13T07:09:29Z</time>
            </trkpt>
            <trkpt lon="100.982165" lat="14.670588">
                <ele>32.341553</ele>
                <time>2008-12-13T07:09:59Z</time>
            </trkpt>
            <trkpt lon="100.982165" lat="14.670588">
                <ele>33.783447</ele>
                <time>2008-12-13T07:10:41Z</time>
            </trkpt>
            <trkpt lon="100.982244" lat="14.670811">
                <ele>32.822266</ele>
                <time>2008-12-13T07:10:52Z</time>
            </trkpt>
            <trkpt lon="100.982294" lat="14.670911">
                <ele>31.860718</ele>
                <time>2008-12-13T07:11:03Z</time>
            </trkpt>
            <trkpt lon="100.982638" lat="14.671538">
                <ele>31.860718</ele>
                <time>2008-12-13T07:11:13Z</time>
            </trkpt>
            <trkpt lon="100.982830" lat="14.671888">
                <ele>32.822266</ele>
                <time>2008-12-13T07:11:21Z</time>
            </trkpt>
            <trkpt lon="100.983016" lat="14.672227">
                <ele>32.822266</ele>
                <time>2008-12-13T07:11:28Z</time>
            </trkpt>
            <trkpt lon="100.983141" lat="14.672476">
                <ele>32.822266</ele>
                <time>2008-12-13T07:11:33Z</time>
            </trkpt>
            <trkpt lon="100.983545" lat="14.673285">
                <ele>30.899536</ele>
                <time>2008-12-13T07:11:49Z</time>
            </trkpt>
            <trkpt lon="100.983667" lat="14.673529">
                <ele>30.899536</ele>
                <time>2008-12-13T07:11:55Z</time>
            </trkpt>
            <trkpt lon="100.983811" lat="14.673607">
                <ele>30.418823</ele>
                <time>2008-12-13T07:11:59Z</time>
            </trkpt>
            <trkpt lon="100.984796" lat="14.673394">
                <ele>30.418823</ele>
                <time>2008-12-13T07:12:16Z</time>
            </trkpt>
            <trkpt lon="100.985125" lat="14.673373">
                <ele>30.418823</ele>
                <time>2008-12-13T07:12:21Z</time>
            </trkpt>
            <trkpt lon="100.985326" lat="14.673361">
                <ele>29.938110</ele>
                <time>2008-12-13T07:12:24Z</time>
            </trkpt>
            <trkpt lon="100.986364" lat="14.673357">
                <ele>29.457520</ele>
                <time>2008-12-13T07:12:39Z</time>
            </trkpt>
            <trkpt lon="100.986772" lat="14.673392">
                <ele>29.457520</ele>
                <time>2008-12-13T07:12:47Z</time>
            </trkpt>
            <trkpt lon="100.986731" lat="14.673474">
                <ele>28.976929</ele>
                <time>2008-12-13T07:12:50Z</time>
            </trkpt>
            <trkpt lon="100.986297" lat="14.674215">
                <ele>28.015503</ele>
                <time>2008-12-13T07:13:06Z</time>
            </trkpt>
            <trkpt lon="100.985837" lat="14.675146">
                <ele>27.534912</ele>
                <time>2008-12-13T07:13:24Z</time>
            </trkpt>
            <trkpt lon="100.985116" lat="14.676288">
                <ele>28.015503</ele>
                <time>2008-12-13T07:13:47Z</time>
            </trkpt>
            <trkpt lon="100.984475" lat="14.677279">
                <ele>29.457520</ele>
                <time>2008-12-13T07:14:07Z</time>
            </trkpt>
            <trkpt lon="100.984261" lat="14.677738">
                <ele>29.938110</ele>
                <time>2008-12-13T07:14:17Z</time>
            </trkpt>
            <trkpt lon="100.984008" lat="14.677752">
                <ele>28.976929</ele>
                <time>2008-12-13T07:14:27Z</time>
            </trkpt>
            <trkpt lon="100.983953" lat="14.677772">
                <ele>28.976929</ele>
                <time>2008-12-13T07:14:39Z</time>
            </trkpt>
            <trkpt lon="100.983952" lat="14.677781">
                <ele>28.496216</ele>
                <time>2008-12-13T07:14:40Z</time>
            </trkpt>
            <trkpt lon="100.983924" lat="14.677834">
                <ele>28.496216</ele>
                <time>2008-12-13T07:14:48Z</time>
            </trkpt>
            <trkpt lon="100.983932" lat="14.677871">
                <ele>28.976929</ele>
                <time>2008-12-13T07:14:52Z</time>
            </trkpt>
            <trkpt lon="100.983810" lat="14.678178">
                <ele>28.976929</ele>
                <time>2008-12-13T07:15:06Z</time>
            </trkpt>
            <trkpt lon="100.983854" lat="14.678622">
                <ele>28.496216</ele>
                <time>2008-12-13T07:15:17Z</time>
            </trkpt>
            <trkpt lon="100.983767" lat="14.678848">
                <ele>28.496216</ele>
                <time>2008-12-13T07:15:23Z</time>
            </trkpt>
            <trkpt lon="100.983743" lat="14.678911">
                <ele>28.496216</ele>
                <time>2008-12-13T07:15:25Z</time>
            </trkpt>
            <trkpt lon="100.983645" lat="14.679166">
                <ele>28.015503</ele>
                <time>2008-12-13T07:15:32Z</time>
            </trkpt>
            <trkpt lon="100.983491" lat="14.679566">
                <ele>28.015503</ele>
                <time>2008-12-13T07:15:45Z</time>
            </trkpt>
            <trkpt lon="100.983485" lat="14.679581">
                <ele>28.015503</ele>
                <time>2008-12-13T07:15:50Z</time>
            </trkpt>
            <trkpt lon="100.983499" lat="14.679545">
                <ele>28.496216</ele>
                <time>2008-12-13T07:16:05Z</time>
            </trkpt>
            <trkpt lon="100.983499" lat="14.679545">
                <ele>30.899536</ele>
                <time>2008-12-13T07:16:17Z</time>
            </trkpt>
            <trkpt lon="100.983499" lat="14.679545">
                <ele>31.380127</ele>
                <time>2008-12-13T07:16:24Z</time>
            </trkpt>
            <trkpt lon="100.983470" lat="14.679622">
                <ele>31.380127</ele>
                <time>2008-12-13T07:16:29Z</time>
            </trkpt>
            <trkpt lon="100.983337" lat="14.679967">
                <ele>31.380127</ele>
                <time>2008-12-13T07:16:41Z</time>
            </trkpt>
            <trkpt lon="100.983183" lat="14.680366">
                <ele>32.341553</ele>
                <time>2008-12-13T07:16:54Z</time>
            </trkpt>
            <trkpt lon="100.983007" lat="14.680824">
                <ele>32.341553</ele>
                <time>2008-12-13T07:17:08Z</time>
            </trkpt>
            <trkpt lon="100.982918" lat="14.681056">
                <ele>32.341553</ele>
                <time>2008-12-13T07:17:14Z</time>
            </trkpt>
            <trkpt lon="100.982611" lat="14.681824">
                <ele>33.783447</ele>
                <time>2008-12-13T07:17:33Z</time>
            </trkpt>
            <trkpt lon="100.982506" lat="14.682080">
                <ele>33.783447</ele>
                <time>2008-12-13T07:17:39Z</time>
            </trkpt>
            <trkpt lon="100.982069" lat="14.683146">
                <ele>35.225464</ele>
                <time>2008-12-13T07:18:03Z</time>
            </trkpt>
            <trkpt lon="100.981870" lat="14.683632">
                <ele>36.667481</ele>
                <time>2008-12-13T07:18:15Z</time>
            </trkpt>
            <trkpt lon="100.981468" lat="14.684614">
                <ele>41.473999</ele>
                <time>2008-12-13T07:18:41Z</time>
            </trkpt>
            <trkpt lon="100.981196" lat="14.685278">
                <ele>45.799927</ele>
                <time>2008-12-13T07:19:02Z</time>
            </trkpt>
            <trkpt lon="100.980978" lat="14.685810">
                <ele>48.683960</ele>
                <time>2008-12-13T07:19:19Z</time>
            </trkpt>
            <trkpt lon="100.981352" lat="14.685988">
                <ele>49.164551</ele>
                <time>2008-12-13T07:19:30Z</time>
            </trkpt>
            <trkpt lon="100.982094" lat="14.686260">
                <ele>49.645264</ele>
                <time>2008-12-13T07:19:47Z</time>
            </trkpt>
            <trkpt lon="100.982276" lat="14.686330">
                <ele>49.645264</ele>
                <time>2008-12-13T07:19:51Z</time>
            </trkpt>
            <trkpt lon="100.982445" lat="14.686710">
                <ele>49.645264</ele>
                <time>2008-12-13T07:20:00Z</time>
            </trkpt>
            <trkpt lon="100.982023" lat="14.687757">
                <ele>48.683960</ele>
                <time>2008-12-13T07:20:19Z</time>
            </trkpt>
            <trkpt lon="100.981554" lat="14.688949">
                <ele>47.722534</ele>
                <time>2008-12-13T07:20:39Z</time>
            </trkpt>
            <trkpt lon="100.981245" lat="14.689735">
                <ele>48.203369</ele>
                <time>2008-12-13T07:20:58Z</time>
            </trkpt>
            <trkpt lon="100.981217" lat="14.689806">
                <ele>49.645264</ele>
                <time>2008-12-13T07:21:08Z</time>
            </trkpt>
            <trkpt lon="100.981217" lat="14.689806">
                <ele>51.567871</ele>
                <time>2008-12-13T07:21:32Z</time>
            </trkpt>
            <trkpt lon="100.981217" lat="14.689806">
                <ele>51.567871</ele>
                <time>2008-12-13T07:31:08Z</time>
            </trkpt>
            <trkpt lon="100.981217" lat="14.689806">
                <ele>47.722534</ele>
                <time>2008-12-13T07:34:01Z</time>
            </trkpt>
            <trkpt lon="100.981217" lat="14.689806">
                <ele>52.048584</ele>
                <time>2008-12-13T07:41:33Z</time>
            </trkpt>
            <trkpt lon="100.981217" lat="14.689806">
                <ele>52.529175</ele>
                <time>2008-12-13T07:41:44Z</time>
            </trkpt>
            <trkpt lon="100.981245" lat="14.689792">
                <ele>53.009766</ele>
                <time>2008-12-13T07:41:53Z</time>
            </trkpt>
            <trkpt lon="100.981420" lat="14.689291">
                <ele>54.451782</ele>
                <time>2008-12-13T07:42:07Z</time>
            </trkpt>
            <trkpt lon="100.981811" lat="14.688296">
                <ele>55.413086</ele>
                <time>2008-12-13T07:42:27Z</time>
            </trkpt>
            <trkpt lon="100.982249" lat="14.687179">
                <ele>56.374512</ele>
                <time>2008-12-13T07:42:49Z</time>
            </trkpt>
            <trkpt lon="100.982449" lat="14.686701">
                <ele>56.374512</ele>
                <time>2008-12-13T07:42:58Z</time>
            </trkpt>
            <trkpt lon="100.982207" lat="14.686301">
                <ele>54.932373</ele>
                <time>2008-12-13T07:43:06Z</time>
            </trkpt>
            <trkpt lon="100.982137" lat="14.686276">
                <ele>54.932373</ele>
                <time>2008-12-13T07:43:07Z</time>
            </trkpt>
            <trkpt lon="100.980882" lat="14.685814">
                <ele>52.529175</ele>
                <time>2008-12-13T07:43:24Z</time>
            </trkpt>
            <trkpt lon="100.979364" lat="14.685241">
                <ele>50.125977</ele>
                <time>2008-12-13T07:43:44Z</time>
            </trkpt>
            <trkpt lon="100.977780" lat="14.684642">
                <ele>50.125977</ele>
                <time>2008-12-13T07:44:05Z</time>
            </trkpt>
            <trkpt lon="100.976094" lat="14.684004">
                <ele>46.761231</ele>
                <time>2008-12-13T07:44:27Z</time>
            </trkpt>
            <trkpt lon="100.974417" lat="14.683370">
                <ele>42.916016</ele>
                <time>2008-12-13T07:44:47Z</time>
            </trkpt>
            <trkpt lon="100.973707" lat="14.683106">
                <ele>43.877319</ele>
                <time>2008-12-13T07:44:57Z</time>
            </trkpt>
            <trkpt lon="100.972787" lat="14.682775">
                <ele>44.358032</ele>
                <time>2008-12-13T07:45:11Z</time>
            </trkpt>
            <trkpt lon="100.971497" lat="14.682311">
                <ele>45.319214</ele>
                <time>2008-12-13T07:45:30Z</time>
            </trkpt>
            <trkpt lon="100.970581" lat="14.681981">
                <ele>46.761231</ele>
                <time>2008-12-13T07:45:46Z</time>
            </trkpt>
            <trkpt lon="100.970410" lat="14.681920">
                <ele>47.241821</ele>
                <time>2008-12-13T07:45:49Z</time>
            </trkpt>
            <trkpt lon="100.969434" lat="14.681569">
                <ele>48.683960</ele>
                <time>2008-12-13T07:46:06Z</time>
            </trkpt>
            <trkpt lon="100.968273" lat="14.681151">
                <ele>47.722534</ele>
                <time>2008-12-13T07:46:25Z</time>
            </trkpt>
            <trkpt lon="100.967232" lat="14.680776">
                <ele>45.319214</ele>
                <time>2008-12-13T07:46:39Z</time>
            </trkpt>
            <trkpt lon="100.966800" lat="14.680621">
                <ele>45.799927</ele>
                <time>2008-12-13T07:46:45Z</time>
            </trkpt>
            <trkpt lon="100.965755" lat="14.680247">
                <ele>46.280640</ele>
                <time>2008-12-13T07:47:00Z</time>
            </trkpt>
            <trkpt lon="100.965656" lat="14.680233">
                <ele>46.761231</ele>
                <time>2008-12-13T07:47:01Z</time>
            </trkpt>
            <trkpt lon="100.965387" lat="14.680332">
                <ele>46.761231</ele>
                <time>2008-12-13T07:47:05Z</time>
            </trkpt>
            <trkpt lon="100.964390" lat="14.680610">
                <ele>46.280640</ele>
                <time>2008-12-13T07:47:19Z</time>
            </trkpt>
            <trkpt lon="100.964046" lat="14.680503">
                <ele>45.799927</ele>
                <time>2008-12-13T07:47:24Z</time>
            </trkpt>
            <trkpt lon="100.963860" lat="14.680420">
                <ele>45.319214</ele>
                <time>2008-12-13T07:47:27Z</time>
            </trkpt>
            <trkpt lon="100.963699" lat="14.680291">
                <ele>45.319214</ele>
                <time>2008-12-13T07:47:32Z</time>
            </trkpt>
            <trkpt lon="100.963626" lat="14.680266">
                <ele>44.838623</ele>
                <time>2008-12-13T07:47:36Z</time>
            </trkpt>
            <trkpt lon="100.963327" lat="14.680651">
                <ele>44.358032</ele>
                <time>2008-12-13T07:47:50Z</time>
            </trkpt>
            <trkpt lon="100.962747" lat="14.680930">
                <ele>47.241821</ele>
                <time>2008-12-13T07:48:06Z</time>
            </trkpt>
            <trkpt lon="100.962185" lat="14.681202">
                <ele>47.722534</ele>
                <time>2008-12-13T07:48:21Z</time>
            </trkpt>
            <trkpt lon="100.961917" lat="14.681331">
                <ele>47.722534</ele>
                <time>2008-12-13T07:48:32Z</time>
            </trkpt>
            <trkpt lon="100.961723" lat="14.681425">
                <ele>48.203369</ele>
                <time>2008-12-13T07:48:45Z</time>
            </trkpt>
            <trkpt lon="100.961663" lat="14.681453">
                <ele>48.203369</ele>
                <time>2008-12-13T07:48:51Z</time>
            </trkpt>
            <trkpt lon="100.961662" lat="14.681454">
                <ele>48.203369</ele>
                <time>2008-12-13T07:48:57Z</time>
            </trkpt>
            <trkpt lon="100.962064" lat="14.681260">
                <ele>48.203369</ele>
                <time>2008-12-13T07:49:08Z</time>
            </trkpt>
            <trkpt lon="100.962778" lat="14.680915">
                <ele>47.722534</ele>
                <time>2008-12-13T07:49:23Z</time>
            </trkpt>
            <trkpt lon="100.963188" lat="14.680718">
                <ele>46.280640</ele>
                <time>2008-12-13T07:49:31Z</time>
            </trkpt>
            <trkpt lon="100.963470" lat="14.680551">
                <ele>45.799927</ele>
                <time>2008-12-13T07:49:36Z</time>
            </trkpt>
            <trkpt lon="100.963786" lat="14.680360">
                <ele>46.761231</ele>
                <time>2008-12-13T07:49:44Z</time>
            </trkpt>
            <trkpt lon="100.963818" lat="14.680386">
                <ele>46.761231</ele>
                <time>2008-12-13T07:49:45Z</time>
            </trkpt>
            <trkpt lon="100.964321" lat="14.680610">
                <ele>46.761231</ele>
                <time>2008-12-13T07:49:55Z</time>
            </trkpt>
            <trkpt lon="100.964552" lat="14.680593">
                <ele>46.761231</ele>
                <time>2008-12-13T07:49:59Z</time>
            </trkpt>
            <trkpt lon="100.965495" lat="14.680290">
                <ele>47.722534</ele>
                <time>2008-12-13T07:50:15Z</time>
            </trkpt>
            <trkpt lon="100.965722" lat="14.680236">
                <ele>47.241821</ele>
                <time>2008-12-13T07:50:18Z</time>
            </trkpt>
            <trkpt lon="100.965953" lat="14.680316">
                <ele>46.761231</ele>
                <time>2008-12-13T07:50:22Z</time>
            </trkpt>
            <trkpt lon="100.966823" lat="14.680629">
                <ele>44.838623</ele>
                <time>2008-12-13T07:50:38Z</time>
            </trkpt>
            <trkpt lon="100.966870" lat="14.680646">
                <ele>44.358032</ele>
                <time>2008-12-13T07:50:39Z</time>
            </trkpt>
            <trkpt lon="100.967021" lat="14.680701">
                <ele>42.916016</ele>
                <time>2008-12-13T07:50:46Z</time>
            </trkpt>
            <trkpt lon="100.966874" lat="14.680647">
                <ele>42.916016</ele>
                <time>2008-12-13T07:50:54Z</time>
            </trkpt>
            <trkpt lon="100.967057" lat="14.679849">
                <ele>42.435425</ele>
                <time>2008-12-13T07:51:00Z</time>
            </trkpt>
            <trkpt lon="100.967292" lat="14.679438">
                <ele>41.473999</ele>
                <time>2008-12-13T07:51:08Z</time>
            </trkpt>
            <trkpt lon="100.967312" lat="14.679228">
                <ele>41.473999</ele>
                <time>2008-12-13T07:51:12Z</time>
            </trkpt>
            <trkpt lon="100.967293" lat="14.679047">
                <ele>41.473999</ele>
                <time>2008-12-13T07:51:16Z</time>
            </trkpt>
            <trkpt lon="100.967298" lat="14.678281">
                <ele>41.473999</ele>
                <time>2008-12-13T07:51:31Z</time>
            </trkpt>
            <trkpt lon="100.967381" lat="14.677964">
                <ele>40.993408</ele>
                <time>2008-12-13T07:51:40Z</time>
            </trkpt>
            <trkpt lon="100.967436" lat="14.677954">
                <ele>40.512817</ele>
                <time>2008-12-13T07:51:53Z</time>
            </trkpt>
            <trkpt lon="100.967445" lat="14.677940">
                <ele>40.993408</ele>
                <time>2008-12-13T07:51:56Z</time>
            </trkpt>
            <trkpt lon="100.967465" lat="14.677925">
                <ele>40.993408</ele>
                <time>2008-12-13T07:51:59Z</time>
            </trkpt>
            <trkpt lon="100.967524" lat="14.677900">
                <ele>40.512817</ele>
                <time>2008-12-13T07:52:10Z</time>
            </trkpt>
            <trkpt lon="100.967517" lat="14.677716">
                <ele>40.512817</ele>
                <time>2008-12-13T07:52:24Z</time>
            </trkpt>
            <trkpt lon="100.967760" lat="14.677663">
                <ele>40.512817</ele>
                <time>2008-12-13T07:52:35Z</time>
            </trkpt>
            <trkpt lon="100.967979" lat="14.677557">
                <ele>40.032105</ele>
                <time>2008-12-13T07:52:48Z</time>
            </trkpt>
            <trkpt lon="100.968058" lat="14.677485">
                <ele>40.032105</ele>
                <time>2008-12-13T07:53:02Z</time>
            </trkpt>
            <trkpt lon="100.968085" lat="14.677467">
                <ele>40.512817</ele>
                <time>2008-12-13T07:53:07Z</time>
            </trkpt>
            <trkpt lon="100.968380" lat="14.677412">
                <ele>40.032105</ele>
                <time>2008-12-13T07:53:20Z</time>
            </trkpt>
            <trkpt lon="100.968520" lat="14.677333">
                <ele>39.070679</ele>
                <time>2008-12-13T07:53:26Z</time>
            </trkpt>
            <trkpt lon="100.968777" lat="14.677259">
                <ele>35.706055</ele>
                <time>2008-12-13T07:53:38Z</time>
            </trkpt>
            <trkpt lon="100.968959" lat="14.677194">
                <ele>37.148071</ele>
                <time>2008-12-13T07:53:48Z</time>
            </trkpt>
            <trkpt lon="100.969019" lat="14.677126">
                <ele>38.109375</ele>
                <time>2008-12-13T07:53:54Z</time>
            </trkpt>
            <trkpt lon="100.968951" lat="14.676826">
                <ele>38.590088</ele>
                <time>2008-12-13T07:54:10Z</time>
            </trkpt>
            <trkpt lon="100.968890" lat="14.676544">
                <ele>39.070679</ele>
                <time>2008-12-13T07:54:25Z</time>
            </trkpt>
            <trkpt lon="100.968814" lat="14.676278">
                <ele>40.032105</ele>
                <time>2008-12-13T07:54:40Z</time>
            </trkpt>
            <trkpt lon="100.968794" lat="14.676122">
                <ele>40.032105</ele>
                <time>2008-12-13T07:54:50Z</time>
            </trkpt>
            <trkpt lon="100.968726" lat="14.675799">
                <ele>39.070679</ele>
                <time>2008-12-13T07:55:05Z</time>
            </trkpt>
            <trkpt lon="100.968617" lat="14.675267">
                <ele>38.590088</ele>
                <time>2008-12-13T07:55:23Z</time>
            </trkpt>
            <trkpt lon="100.968528" lat="14.674827">
                <ele>38.109375</ele>
                <time>2008-12-13T07:55:39Z</time>
            </trkpt>
            <trkpt lon="100.968620" lat="14.674648">
                <ele>37.628662</ele>
                <time>2008-12-13T07:55:51Z</time>
            </trkpt>
            <trkpt lon="100.968727" lat="14.674489">
                <ele>38.590088</ele>
                <time>2008-12-13T07:56:03Z</time>
            </trkpt>
            <trkpt lon="100.968396" lat="14.674369">
                <ele>37.628662</ele>
                <time>2008-12-13T07:56:16Z</time>
            </trkpt>
            <trkpt lon="100.968163" lat="14.674296">
                <ele>38.109375</ele>
                <time>2008-12-13T07:56:22Z</time>
            </trkpt>
            <trkpt lon="100.967659" lat="14.674097">
                <ele>38.109375</ele>
                <time>2008-12-13T07:56:33Z</time>
            </trkpt>
            <trkpt lon="100.967522" lat="14.674063">
                <ele>38.590088</ele>
                <time>2008-12-13T07:56:36Z</time>
            </trkpt>
            <trkpt lon="100.967056" lat="14.674090">
                <ele>38.109375</ele>
                <time>2008-12-13T07:56:49Z</time>
            </trkpt>
            <trkpt lon="100.966572" lat="14.674223">
                <ele>37.628662</ele>
                <time>2008-12-13T07:57:04Z</time>
            </trkpt>
            <trkpt lon="100.966458" lat="14.674437">
                <ele>35.706055</ele>
                <time>2008-12-13T07:57:14Z</time>
            </trkpt>
            <trkpt lon="100.966404" lat="14.674796">
                <ele>35.225464</ele>
                <time>2008-12-13T07:57:23Z</time>
            </trkpt>
            <trkpt lon="100.966221" lat="14.674935">
                <ele>36.186768</ele>
                <time>2008-12-13T07:57:28Z</time>
            </trkpt>
            <trkpt lon="100.965811" lat="14.674905">
                <ele>37.148071</ele>
                <time>2008-12-13T07:57:36Z</time>
            </trkpt>
            <trkpt lon="100.965285" lat="14.674664">
                <ele>37.628662</ele>
                <time>2008-12-13T07:57:51Z</time>
            </trkpt>
            <trkpt lon="100.965017" lat="14.674362">
                <ele>38.590088</ele>
                <time>2008-12-13T07:58:02Z</time>
            </trkpt>
            <trkpt lon="100.964929" lat="14.674297">
                <ele>38.109375</ele>
                <time>2008-12-13T07:58:05Z</time>
            </trkpt>
            <trkpt lon="100.964455" lat="14.674009">
                <ele>39.070679</ele>
                <time>2008-12-13T07:58:18Z</time>
            </trkpt>
            <trkpt lon="100.963997" lat="14.673713">
                <ele>40.032105</ele>
                <time>2008-12-13T07:58:31Z</time>
            </trkpt>
            <trkpt lon="100.963997" lat="14.673713">
                <ele>40.512817</ele>
                <time>2008-12-13T07:58:34Z</time>
            </trkpt>
            <trkpt lon="100.964153" lat="14.673493">
                <ele>40.993408</ele>
                <time>2008-12-13T07:58:45Z</time>
            </trkpt>
            <trkpt lon="100.964160" lat="14.673471">
                <ele>41.473999</ele>
                <time>2008-12-13T07:58:46Z</time>
            </trkpt>
            <trkpt lon="100.964119" lat="14.673381">
                <ele>41.473999</ele>
                <time>2008-12-13T07:58:50Z</time>
            </trkpt>
            <trkpt lon="100.963926" lat="14.673242">
                <ele>40.993408</ele>
                <time>2008-12-13T07:58:57Z</time>
            </trkpt>
            <trkpt lon="100.963201" lat="14.672920">
                <ele>40.993408</ele>
                <time>2008-12-13T07:59:10Z</time>
            </trkpt>
            <trkpt lon="100.962982" lat="14.672881">
                <ele>40.512817</ele>
                <time>2008-12-13T07:59:14Z</time>
            </trkpt>
            <trkpt lon="100.962775" lat="14.672864">
                <ele>40.512817</ele>
                <time>2008-12-13T07:59:18Z</time>
            </trkpt>
            <trkpt lon="100.962006" lat="14.672862">
                <ele>39.070679</ele>
                <time>2008-12-13T07:59:33Z</time>
            </trkpt>
            <trkpt lon="100.961984" lat="14.673095">
                <ele>37.148071</ele>
                <time>2008-12-13T07:59:40Z</time>
            </trkpt>
            <trkpt lon="100.961985" lat="14.673180">
                <ele>38.109375</ele>
                <time>2008-12-13T07:59:43Z</time>
            </trkpt>
            <trkpt lon="100.961470" lat="14.673292">
                <ele>40.032105</ele>
                <time>2008-12-13T07:59:58Z</time>
            </trkpt>
            <trkpt lon="100.961266" lat="14.673271">
                <ele>40.032105</ele>
                <time>2008-12-13T08:00:03Z</time>
            </trkpt>
            <trkpt lon="100.960859" lat="14.673314">
                <ele>40.032105</ele>
                <time>2008-12-13T08:00:13Z</time>
            </trkpt>
            <trkpt lon="100.960700" lat="14.673217">
                <ele>40.512817</ele>
                <time>2008-12-13T08:00:17Z</time>
            </trkpt>
            <trkpt lon="100.960396" lat="14.672686">
                <ele>41.954712</ele>
                <time>2008-12-13T08:00:30Z</time>
            </trkpt>
            <trkpt lon="100.960160" lat="14.672584">
                <ele>41.954712</ele>
                <time>2008-12-13T08:00:36Z</time>
            </trkpt>
            <trkpt lon="100.959601" lat="14.672837">
                <ele>41.954712</ele>
                <time>2008-12-13T08:00:50Z</time>
            </trkpt>
            <trkpt lon="100.959382" lat="14.672632">
                <ele>42.435425</ele>
                <time>2008-12-13T08:00:57Z</time>
            </trkpt>
            <trkpt lon="100.959229" lat="14.672751">
                <ele>41.954712</ele>
                <time>2008-12-13T08:01:01Z</time>
            </trkpt>
            <trkpt lon="100.958941" lat="14.672928">
                <ele>42.916016</ele>
                <time>2008-12-13T08:01:10Z</time>
            </trkpt>
            <trkpt lon="100.958862" lat="14.673116">
                <ele>42.435425</ele>
                <time>2008-12-13T08:01:15Z</time>
            </trkpt>
            <trkpt lon="100.958828" lat="14.673330">
                <ele>41.473999</ele>
                <time>2008-12-13T08:01:20Z</time>
            </trkpt>
            <trkpt lon="100.958764" lat="14.673455">
                <ele>41.473999</ele>
                <time>2008-12-13T08:01:23Z</time>
            </trkpt>
            <trkpt lon="100.958505" lat="14.673800">
                <ele>42.435425</ele>
                <time>2008-12-13T08:01:32Z</time>
            </trkpt>
            <trkpt lon="100.958266" lat="14.673934">
                <ele>42.916016</ele>
                <time>2008-12-13T08:01:37Z</time>
            </trkpt>
            <trkpt lon="100.958123" lat="14.674006">
                <ele>42.916016</ele>
                <time>2008-12-13T08:01:40Z</time>
            </trkpt>
            <trkpt lon="100.957923" lat="14.674064">
                <ele>42.916016</ele>
                <time>2008-12-13T08:01:44Z</time>
            </trkpt>
            <trkpt lon="100.957816" lat="14.674082">
                <ele>42.916016</ele>
                <time>2008-12-13T08:01:46Z</time>
            </trkpt>
            <trkpt lon="100.957570" lat="14.674233">
                <ele>43.396606</ele>
                <time>2008-12-13T08:01:52Z</time>
            </trkpt>
            <trkpt lon="100.957231" lat="14.674322">
                <ele>43.877319</ele>
                <time>2008-12-13T08:01:59Z</time>
            </trkpt>
            <trkpt lon="100.956935" lat="14.674361">
                <ele>44.358032</ele>
                <time>2008-12-13T08:02:04Z</time>
            </trkpt>
            <trkpt lon="100.956637" lat="14.674547">
                <ele>44.358032</ele>
                <time>2008-12-13T08:02:11Z</time>
            </trkpt>
            <trkpt lon="100.956609" lat="14.674645">
                <ele>43.877319</ele>
                <time>2008-12-13T08:02:13Z</time>
            </trkpt>
            <trkpt lon="100.956293" lat="14.675062">
                <ele>44.358032</ele>
                <time>2008-12-13T08:02:23Z</time>
            </trkpt>
            <trkpt lon="100.956263" lat="14.675111">
                <ele>44.358032</ele>
                <time>2008-12-13T08:02:24Z</time>
            </trkpt>
            <trkpt lon="100.956140" lat="14.675295">
                <ele>44.358032</ele>
                <time>2008-12-13T08:02:28Z</time>
            </trkpt>
            <trkpt lon="100.955972" lat="14.675403">
                <ele>44.838623</ele>
                <time>2008-12-13T08:02:32Z</time>
            </trkpt>
            <trkpt lon="100.955438" lat="14.675426">
                <ele>44.838623</ele>
                <time>2008-12-13T08:02:42Z</time>
            </trkpt>
            <trkpt lon="100.955268" lat="14.675377">
                <ele>45.319214</ele>
                <time>2008-12-13T08:02:46Z</time>
            </trkpt>
            <trkpt lon="100.955034" lat="14.675278">
                <ele>45.319214</ele>
                <time>2008-12-13T08:02:51Z</time>
            </trkpt>
            <trkpt lon="100.954948" lat="14.675241">
                <ele>45.319214</ele>
                <time>2008-12-13T08:02:53Z</time>
            </trkpt>
            <trkpt lon="100.954866" lat="14.675200">
                <ele>45.799927</ele>
                <time>2008-12-13T08:02:55Z</time>
            </trkpt>
            <trkpt lon="100.954739" lat="14.675136">
                <ele>46.280640</ele>
                <time>2008-12-13T08:02:58Z</time>
            </trkpt>
            <trkpt lon="100.954427" lat="14.675108">
                <ele>46.761231</ele>
                <time>2008-12-13T08:03:05Z</time>
            </trkpt>
            <trkpt lon="100.954305" lat="14.675182">
                <ele>46.761231</ele>
                <time>2008-12-13T08:03:08Z</time>
            </trkpt>
            <trkpt lon="100.954170" lat="14.675434">
                <ele>46.280640</ele>
                <time>2008-12-13T08:03:14Z</time>
            </trkpt>
            <trkpt lon="100.954159" lat="14.675543">
                <ele>46.280640</ele>
                <time>2008-12-13T08:03:16Z</time>
            </trkpt>
            <trkpt lon="100.953904" lat="14.675889">
                <ele>46.761231</ele>
                <time>2008-12-13T08:03:25Z</time>
            </trkpt>
            <trkpt lon="100.953677" lat="14.676098">
                <ele>46.280640</ele>
                <time>2008-12-13T08:03:34Z</time>
            </trkpt>
            <trkpt lon="100.953349" lat="14.676427">
                <ele>46.761231</ele>
                <time>2008-12-13T08:03:45Z</time>
            </trkpt>
            <trkpt lon="100.953326" lat="14.676547">
                <ele>46.280640</ele>
                <time>2008-12-13T08:03:48Z</time>
            </trkpt>
            <trkpt lon="100.953378" lat="14.676723">
                <ele>44.358032</ele>
                <time>2008-12-13T08:03:52Z</time>
            </trkpt>
            <trkpt lon="100.953527" lat="14.677174">
                <ele>42.916016</ele>
                <time>2008-12-13T08:04:01Z</time>
            </trkpt>
            <trkpt lon="100.953707" lat="14.677406">
                <ele>42.435425</ele>
                <time>2008-12-13T08:04:08Z</time>
            </trkpt>
            <trkpt lon="100.953931" lat="14.677785">
                <ele>38.590088</ele>
                <time>2008-12-13T08:04:19Z</time>
            </trkpt>
            <trkpt lon="100.954009" lat="14.677911">
                <ele>37.148071</ele>
                <time>2008-12-13T08:04:28Z</time>
            </trkpt>
            <trkpt lon="100.954049" lat="14.677942">
                <ele>37.628662</ele>
                <time>2008-12-13T08:04:40Z</time>
            </trkpt>
            <trkpt lon="100.954082" lat="14.677973">
                <ele>38.590088</ele>
                <time>2008-12-13T08:04:46Z</time>
            </trkpt>
            <trkpt lon="100.954122" lat="14.678050">
                <ele>40.993408</ele>
                <time>2008-12-13T08:04:58Z</time>
            </trkpt>
            <trkpt lon="100.954012" lat="14.678169">
                <ele>41.473999</ele>
                <time>2008-12-13T08:05:06Z</time>
            </trkpt>
            <trkpt lon="100.953660" lat="14.678394">
                <ele>41.473999</ele>
                <time>2008-12-13T08:05:20Z</time>
            </trkpt>
            <trkpt lon="100.953603" lat="14.678631">
                <ele>41.473999</ele>
                <time>2008-12-13T08:05:31Z</time>
            </trkpt>
            <trkpt lon="100.953629" lat="14.678768">
                <ele>50.606567</ele>
                <time>2008-12-13T08:07:22Z</time>
            </trkpt>
            <trkpt lon="100.953704" lat="14.679085">
                <ele>49.645264</ele>
                <time>2008-12-13T08:07:30Z</time>
            </trkpt>
            <trkpt lon="100.953622" lat="14.679360">
                <ele>49.645264</ele>
                <time>2008-12-13T08:07:38Z</time>
            </trkpt>
            <trkpt lon="100.953437" lat="14.679492">
                <ele>49.645264</ele>
                <time>2008-12-13T08:07:43Z</time>
            </trkpt>
            <trkpt lon="100.953339" lat="14.679531">
                <ele>49.645264</ele>
                <time>2008-12-13T08:07:45Z</time>
            </trkpt>
            <trkpt lon="100.953146" lat="14.679760">
                <ele>49.645264</ele>
                <time>2008-12-13T08:07:51Z</time>
            </trkpt>
            <trkpt lon="100.953096" lat="14.680068">
                <ele>49.164551</ele>
                <time>2008-12-13T08:07:57Z</time>
            </trkpt>
            <trkpt lon="100.953174" lat="14.680292">
                <ele>48.683960</ele>
                <time>2008-12-13T08:08:02Z</time>
            </trkpt>
            <trkpt lon="100.953005" lat="14.680533">
                <ele>49.164551</ele>
                <time>2008-12-13T08:08:09Z</time>
            </trkpt>
            <trkpt lon="100.952943" lat="14.680682">
                <ele>49.164551</ele>
                <time>2008-12-13T08:08:12Z</time>
            </trkpt>
            <trkpt lon="100.952763" lat="14.680770">
                <ele>49.645264</ele>
                <time>2008-12-13T08:08:16Z</time>
            </trkpt>
            <trkpt lon="100.952449" lat="14.680885">
                <ele>49.645264</ele>
                <time>2008-12-13T08:08:22Z</time>
            </trkpt>
            <trkpt lon="100.952309" lat="14.681008">
                <ele>50.125977</ele>
                <time>2008-12-13T08:08:25Z</time>
            </trkpt>
            <trkpt lon="100.952159" lat="14.681112">
                <ele>50.125977</ele>
                <time>2008-12-13T08:08:28Z</time>
            </trkpt>
            <trkpt lon="100.951922" lat="14.681179">
                <ele>50.125977</ele>
                <time>2008-12-13T08:08:32Z</time>
            </trkpt>
            <trkpt lon="100.951635" lat="14.681287">
                <ele>50.606567</ele>
                <time>2008-12-13T08:08:37Z</time>
            </trkpt>
            <trkpt lon="100.951270" lat="14.681247">
                <ele>51.087158</ele>
                <time>2008-12-13T08:08:43Z</time>
            </trkpt>
            <trkpt lon="100.951013" lat="14.681221">
                <ele>51.567871</ele>
                <time>2008-12-13T08:08:47Z</time>
            </trkpt>
            <trkpt lon="100.950552" lat="14.681106">
                <ele>52.048584</ele>
                <time>2008-12-13T08:08:56Z</time>
            </trkpt>
            <trkpt lon="100.950382" lat="14.680973">
                <ele>52.048584</ele>
                <time>2008-12-13T08:09:00Z</time>
            </trkpt>
            <trkpt lon="100.950108" lat="14.680708">
                <ele>52.529175</ele>
                <time>2008-12-13T08:09:13Z</time>
            </trkpt>
            <trkpt lon="100.950118" lat="14.680699">
                <ele>53.490479</ele>
                <time>2008-12-13T08:09:50Z</time>
            </trkpt>
            <trkpt lon="100.950083" lat="14.680663">
                <ele>53.971191</ele>
                <time>2008-12-13T08:10:24Z</time>
            </trkpt>
            <trkpt lon="100.950092" lat="14.680661">
                <ele>55.893799</ele>
                <time>2008-12-13T08:11:32Z</time>
            </trkpt>
            <trkpt lon="100.950093" lat="14.680658">
                <ele>55.893799</ele>
                <time>2008-12-13T08:12:11Z</time>
            </trkpt>
            <trkpt lon="100.950093" lat="14.680661">
                <ele>55.413086</ele>
                <time>2008-12-13T08:12:29Z</time>
            </trkpt>
            <trkpt lon="100.950110" lat="14.680699">
                <ele>54.932373</ele>
                <time>2008-12-13T08:12:59Z</time>
            </trkpt>
            <trkpt lon="100.950112" lat="14.680721">
                <ele>53.490479</ele>
                <time>2008-12-13T08:13:03Z</time>
            </trkpt>
            <trkpt lon="100.950111" lat="14.680777">
                <ele>52.529175</ele>
                <time>2008-12-13T08:13:10Z</time>
            </trkpt>
            <trkpt lon="100.950038" lat="14.680833">
                <ele>54.451782</ele>
                <time>2008-12-13T08:13:25Z</time>
            </trkpt>
            <trkpt lon="100.950029" lat="14.680835">
                <ele>54.451782</ele>
                <time>2008-12-13T08:13:26Z</time>
            </trkpt>
            <trkpt lon="100.949760" lat="14.680845">
                <ele>54.932373</ele>
                <time>2008-12-13T08:13:38Z</time>
            </trkpt>
            <trkpt lon="100.949278" lat="14.680927">
                <ele>55.413086</ele>
                <time>2008-12-13T08:13:53Z</time>
            </trkpt>
            <trkpt lon="100.948860" lat="14.680937">
                <ele>55.413086</ele>
                <time>2008-12-13T08:14:07Z</time>
            </trkpt>
            <trkpt lon="100.948410" lat="14.681053">
                <ele>55.413086</ele>
                <time>2008-12-13T08:14:21Z</time>
            </trkpt>
            <trkpt lon="100.948154" lat="14.681163">
                <ele>56.374512</ele>
                <time>2008-12-13T08:14:30Z</time>
            </trkpt>
            <trkpt lon="100.947992" lat="14.681219">
                <ele>55.893799</ele>
                <time>2008-12-13T08:14:34Z</time>
            </trkpt>
            <trkpt lon="100.947903" lat="14.681245">
                <ele>55.893799</ele>
                <time>2008-12-13T08:14:36Z</time>
            </trkpt>
            <trkpt lon="100.947725" lat="14.681332">
                <ele>55.413086</ele>
                <time>2008-12-13T08:14:40Z</time>
            </trkpt>
            <trkpt lon="100.947520" lat="14.681393">
                <ele>55.413086</ele>
                <time>2008-12-13T08:14:44Z</time>
            </trkpt>
            <trkpt lon="100.947294" lat="14.681488">
                <ele>55.413086</ele>
                <time>2008-12-13T08:14:50Z</time>
            </trkpt>
            <trkpt lon="100.947099" lat="14.681625">
                <ele>54.932373</ele>
                <time>2008-12-13T08:14:56Z</time>
            </trkpt>
            <trkpt lon="100.946879" lat="14.681925">
                <ele>54.451782</ele>
                <time>2008-12-13T08:15:07Z</time>
            </trkpt>
            <trkpt lon="100.946708" lat="14.682199">
                <ele>55.413086</ele>
                <time>2008-12-13T08:15:20Z</time>
            </trkpt>
            <trkpt lon="100.946657" lat="14.682520">
                <ele>54.451782</ele>
                <time>2008-12-13T08:15:30Z</time>
            </trkpt>
            <trkpt lon="100.946640" lat="14.682965">
                <ele>53.490479</ele>
                <time>2008-12-13T08:15:40Z</time>
            </trkpt>
            <trkpt lon="100.946697" lat="14.683222">
                <ele>53.009766</ele>
                <time>2008-12-13T08:15:46Z</time>
            </trkpt>
            <trkpt lon="100.946865" lat="14.683796">
                <ele>53.490479</ele>
                <time>2008-12-13T08:16:00Z</time>
            </trkpt>
            <trkpt lon="100.947025" lat="14.684281">
                <ele>53.490479</ele>
                <time>2008-12-13T08:16:14Z</time>
            </trkpt>
            <trkpt lon="100.947226" lat="14.684395">
                <ele>54.451782</ele>
                <time>2008-12-13T08:16:20Z</time>
            </trkpt>
            <trkpt lon="100.947796" lat="14.684353">
                <ele>55.413086</ele>
                <time>2008-12-13T08:16:34Z</time>
            </trkpt>
            <trkpt lon="100.948238" lat="14.684264">
                <ele>55.413086</ele>
                <time>2008-12-13T08:16:45Z</time>
            </trkpt>
            <trkpt lon="100.948502" lat="14.684250">
                <ele>55.413086</ele>
                <time>2008-12-13T08:16:51Z</time>
            </trkpt>
            <trkpt lon="100.948639" lat="14.684268">
                <ele>55.893799</ele>
                <time>2008-12-13T08:16:54Z</time>
            </trkpt>
            <trkpt lon="100.948943" lat="14.684588">
                <ele>55.893799</ele>
                <time>2008-12-13T08:17:05Z</time>
            </trkpt>
            <trkpt lon="100.949077" lat="14.684962">
                <ele>56.855103</ele>
                <time>2008-12-13T08:17:17Z</time>
            </trkpt>
            <trkpt lon="100.949226" lat="14.685443">
                <ele>60.219727</ele>
                <time>2008-12-13T08:17:34Z</time>
            </trkpt>
            <trkpt lon="100.949433" lat="14.685795">
                <ele>64.065063</ele>
                <time>2008-12-13T08:17:50Z</time>
            </trkpt>
            <trkpt lon="100.949765" lat="14.685910">
                <ele>67.429688</ele>
                <time>2008-12-13T08:18:04Z</time>
            </trkpt>
            <trkpt lon="100.949999" lat="14.685972">
                <ele>67.910278</ele>
                <time>2008-12-13T08:18:14Z</time>
            </trkpt>
            <trkpt lon="100.950239" lat="14.686374">
                <ele>64.065063</ele>
                <time>2008-12-13T08:18:22Z</time>
            </trkpt>
            <trkpt lon="100.950411" lat="14.685720">
                <ele>63.103638</ele>
                <time>2008-12-13T08:18:30Z</time>
            </trkpt>
            <trkpt lon="100.950450" lat="14.685525">
                <ele>63.103638</ele>
                <time>2008-12-13T08:18:36Z</time>
            </trkpt>
            <trkpt lon="100.950428" lat="14.685249">
                <ele>62.622925</ele>
                <time>2008-12-13T08:18:43Z</time>
            </trkpt>
            <trkpt lon="100.950490" lat="14.685054">
                <ele>61.181030</ele>
                <time>2008-12-13T08:18:48Z</time>
            </trkpt>
            <trkpt lon="100.950520" lat="14.684512">
                <ele>59.258423</ele>
                <time>2008-12-13T08:19:01Z</time>
            </trkpt>
            <trkpt lon="100.950534" lat="14.684342">
                <ele>58.297119</ele>
                <time>2008-12-13T08:19:05Z</time>
            </trkpt>
            <trkpt lon="100.950850" lat="14.684295">
                <ele>58.297119</ele>
                <time>2008-12-13T08:19:14Z</time>
            </trkpt>
            <trkpt lon="100.951536" lat="14.684291">
                <ele>57.335815</ele>
                <time>2008-12-13T08:19:26Z</time>
            </trkpt>
            <trkpt lon="100.951596" lat="14.684290">
                <ele>57.335815</ele>
                <time>2008-12-13T08:19:27Z</time>
            </trkpt>
            <trkpt lon="100.951717" lat="14.684275">
                <ele>56.855103</ele>
                <time>2008-12-13T08:19:29Z</time>
            </trkpt>
            <trkpt lon="100.951849" lat="14.684272">
                <ele>55.893799</ele>
                <time>2008-12-13T08:19:31Z</time>
            </trkpt>
            <trkpt lon="100.952210" lat="14.684365">
                <ele>54.932373</ele>
                <time>2008-12-13T08:19:37Z</time>
            </trkpt>
            <trkpt lon="100.952539" lat="14.684474">
                <ele>55.893799</ele>
                <time>2008-12-13T08:19:45Z</time>
            </trkpt>
            <trkpt lon="100.952797" lat="14.684564">
                <ele>55.413086</ele>
                <time>2008-12-13T08:19:50Z</time>
            </trkpt>
            <trkpt lon="100.952898" lat="14.684612">
                <ele>55.413086</ele>
                <time>2008-12-13T08:19:52Z</time>
            </trkpt>
            <trkpt lon="100.952983" lat="14.684666">
                <ele>55.413086</ele>
                <time>2008-12-13T08:19:54Z</time>
            </trkpt>
            <trkpt lon="100.953362" lat="14.684774">
                <ele>53.009766</ele>
                <time>2008-12-13T08:20:04Z</time>
            </trkpt>
            <trkpt lon="100.953581" lat="14.684714">
                <ele>53.490479</ele>
                <time>2008-12-13T08:20:13Z</time>
            </trkpt>
            <trkpt lon="100.953636" lat="14.684702">
                <ele>53.490479</ele>
                <time>2008-12-13T08:20:20Z</time>
            </trkpt>
            <trkpt lon="100.953672" lat="14.684714">
                <ele>52.529175</ele>
                <time>2008-12-13T08:20:25Z</time>
            </trkpt>
            <trkpt lon="100.953922" lat="14.684722">
                <ele>49.164551</ele>
                <time>2008-12-13T08:20:37Z</time>
            </trkpt>
            <trkpt lon="100.954047" lat="14.684757">
                <ele>52.048584</ele>
                <time>2008-12-13T08:20:47Z</time>
            </trkpt>
            <trkpt lon="100.954054" lat="14.684834">
                <ele>55.893799</ele>
                <time>2008-12-13T08:21:03Z</time>
            </trkpt>
            <trkpt lon="100.954069" lat="14.684904">
                <ele>62.142334</ele>
                <time>2008-12-13T08:21:16Z</time>
            </trkpt>
            <trkpt lon="100.954061" lat="14.685009">
                <ele>59.739136</ele>
                <time>2008-12-13T08:21:30Z</time>
            </trkpt>
            <trkpt lon="100.954037" lat="14.685011">
                <ele>62.142334</ele>
                <time>2008-12-13T08:21:44Z</time>
            </trkpt>
            <trkpt lon="100.954107" lat="14.685016">
                <ele>57.816528</ele>
                <time>2008-12-13T08:22:04Z</time>
            </trkpt>
            <trkpt lon="100.954126" lat="14.685014">
                <ele>57.335815</ele>
                <time>2008-12-13T08:22:06Z</time>
            </trkpt>
            <trkpt lon="100.954239" lat="14.684985">
                <ele>55.413086</ele>
                <time>2008-12-13T08:22:21Z</time>
            </trkpt>
            <trkpt lon="100.954300" lat="14.684949">
                <ele>56.374512</ele>
                <time>2008-12-13T08:22:35Z</time>
            </trkpt>
            <trkpt lon="100.954370" lat="14.684908">
                <ele>55.413086</ele>
                <time>2008-12-13T08:22:50Z</time>
            </trkpt>
            <trkpt lon="100.954395" lat="14.684879">
                <ele>55.893799</ele>
                <time>2008-12-13T08:22:57Z</time>
            </trkpt>
            <trkpt lon="100.954462" lat="14.684828">
                <ele>54.451782</ele>
                <time>2008-12-13T08:23:01Z</time>
            </trkpt>
            <trkpt lon="100.954647" lat="14.684659">
                <ele>54.451782</ele>
                <time>2008-12-13T08:23:15Z</time>
            </trkpt>
            <trkpt lon="100.954715" lat="14.684559">
                <ele>53.971191</ele>
                <time>2008-12-13T08:23:24Z</time>
            </trkpt>
            <trkpt lon="100.954883" lat="14.684583">
                <ele>53.490479</ele>
                <time>2008-12-13T08:23:30Z</time>
            </trkpt>
            <trkpt lon="100.955271" lat="14.684648">
                <ele>53.490479</ele>
                <time>2008-12-13T08:23:40Z</time>
            </trkpt>
            <trkpt lon="100.955358" lat="14.684810">
                <ele>53.009766</ele>
                <time>2008-12-13T08:23:45Z</time>
            </trkpt>
            <trkpt lon="100.955594" lat="14.685349">
                <ele>53.009766</ele>
                <time>2008-12-13T08:24:00Z</time>
            </trkpt>
            <trkpt lon="100.955764" lat="14.685605">
                <ele>53.009766</ele>
                <time>2008-12-13T08:24:09Z</time>
            </trkpt>
            <trkpt lon="100.956057" lat="14.685931">
                <ele>52.048584</ele>
                <time>2008-12-13T08:24:21Z</time>
            </trkpt>
            <trkpt lon="100.956370" lat="14.686083">
                <ele>51.567871</ele>
                <time>2008-12-13T08:24:30Z</time>
            </trkpt>
            <trkpt lon="100.956575" lat="14.686170">
                <ele>53.009766</ele>
                <time>2008-12-13T08:24:35Z</time>
            </trkpt>
            <trkpt lon="100.956942" lat="14.686571">
                <ele>55.893799</ele>
                <time>2008-12-13T08:24:49Z</time>
            </trkpt>
            <trkpt lon="100.956844" lat="14.686946">
                <ele>58.297119</ele>
                <time>2008-12-13T08:25:00Z</time>
            </trkpt>
            <trkpt lon="100.956615" lat="14.687311">
                <ele>61.181030</ele>
                <time>2008-12-13T08:25:13Z</time>
            </trkpt>
            <trkpt lon="100.956520" lat="14.687734">
                <ele>62.622925</ele>
                <time>2008-12-13T08:25:27Z</time>
            </trkpt>
            <trkpt lon="100.956764" lat="14.688062">
                <ele>61.661743</ele>
                <time>2008-12-13T08:25:41Z</time>
            </trkpt>
            <trkpt lon="100.956829" lat="14.688104">
                <ele>61.661743</ele>
                <time>2008-12-13T08:25:42Z</time>
            </trkpt>
            <trkpt lon="100.956902" lat="14.688305">
                <ele>61.181030</ele>
                <time>2008-12-13T08:25:46Z</time>
            </trkpt>
            <trkpt lon="100.956996" lat="14.688679">
                <ele>59.258423</ele>
                <time>2008-12-13T08:25:55Z</time>
            </trkpt>
            <trkpt lon="100.957334" lat="14.688849">
                <ele>57.816528</ele>
                <time>2008-12-13T08:26:03Z</time>
            </trkpt>
            <trkpt lon="100.957661" lat="14.688764">
                <ele>58.297119</ele>
                <time>2008-12-13T08:26:16Z</time>
            </trkpt>
            <trkpt lon="100.957900" lat="14.688769">
                <ele>59.258423</ele>
                <time>2008-12-13T08:26:30Z</time>
            </trkpt>
            <trkpt lon="100.958103" lat="14.688777">
                <ele>62.622925</ele>
                <time>2008-12-13T08:26:46Z</time>
            </trkpt>
            <trkpt lon="100.958200" lat="14.688764">
                <ele>63.584351</ele>
                <time>2008-12-13T08:26:55Z</time>
            </trkpt>
            <trkpt lon="100.958456" lat="14.688696">
                <ele>66.468262</ele>
                <time>2008-12-13T08:27:11Z</time>
            </trkpt>
            <trkpt lon="100.958663" lat="14.688624">
                <ele>70.313477</ele>
                <time>2008-12-13T08:27:28Z</time>
            </trkpt>
            <trkpt lon="100.958844" lat="14.688517">
                <ele>71.755493</ele>
                <time>2008-12-13T08:27:40Z</time>
            </trkpt>
            <trkpt lon="100.959253" lat="14.688149">
                <ele>69.832886</ele>
                <time>2008-12-13T08:27:54Z</time>
            </trkpt>
            <trkpt lon="100.959315" lat="14.688132">
                <ele>68.871582</ele>
                <time>2008-12-13T08:27:55Z</time>
            </trkpt>
            <trkpt lon="100.959506" lat="14.688077">
                <ele>66.468262</ele>
                <time>2008-12-13T08:27:59Z</time>
            </trkpt>
            <trkpt lon="100.960285" lat="14.688106">
                <ele>66.948975</ele>
                <time>2008-12-13T08:28:10Z</time>
            </trkpt>
            <trkpt lon="100.960337" lat="14.688097">
                <ele>66.948975</ele>
                <time>2008-12-13T08:28:11Z</time>
            </trkpt>
            <trkpt lon="100.961263" lat="14.688086">
                <ele>67.429688</ele>
                <time>2008-12-13T08:28:26Z</time>
            </trkpt>
            <trkpt lon="100.961718" lat="14.688119">
                <ele>65.026367</ele>
                <time>2008-12-13T08:28:33Z</time>
            </trkpt>
            <trkpt lon="100.961973" lat="14.688201">
                <ele>63.584351</ele>
                <time>2008-12-13T08:28:37Z</time>
            </trkpt>
            <trkpt lon="100.962084" lat="14.688265">
                <ele>64.065063</ele>
                <time>2008-12-13T08:28:39Z</time>
            </trkpt>
            <trkpt lon="100.962271" lat="14.688342">
                <ele>64.545654</ele>
                <time>2008-12-13T08:28:43Z</time>
            </trkpt>
            <trkpt lon="100.962444" lat="14.688337">
                <ele>65.987671</ele>
                <time>2008-12-13T08:28:47Z</time>
            </trkpt>
            <trkpt lon="100.962643" lat="14.688090">
                <ele>67.910278</ele>
                <time>2008-12-13T08:28:56Z</time>
            </trkpt>
            <trkpt lon="100.962608" lat="14.687907">
                <ele>66.468262</ele>
                <time>2008-12-13T08:29:00Z</time>
            </trkpt>
            <trkpt lon="100.962520" lat="14.687636">
                <ele>64.065063</ele>
                <time>2008-12-13T08:29:05Z</time>
            </trkpt>
            <trkpt lon="100.962678" lat="14.687416">
                <ele>61.661743</ele>
                <time>2008-12-13T08:29:13Z</time>
            </trkpt>
            <trkpt lon="100.963309" lat="14.687396">
                <ele>59.739136</ele>
                <time>2008-12-13T08:29:25Z</time>
            </trkpt>
            <trkpt lon="100.963509" lat="14.687421">
                <ele>59.739136</ele>
                <time>2008-12-13T08:29:29Z</time>
            </trkpt>
            <trkpt lon="100.964101" lat="14.687690">
                <ele>62.622925</ele>
                <time>2008-12-13T08:29:43Z</time>
            </trkpt>
            <trkpt lon="100.964577" lat="14.687842">
                <ele>62.142334</ele>
                <time>2008-12-13T08:29:53Z</time>
            </trkpt>
            <trkpt lon="100.965276" lat="14.687801">
                <ele>57.816528</ele>
                <time>2008-12-13T08:30:05Z</time>
            </trkpt>
            <trkpt lon="100.966269" lat="14.687653">
                <ele>55.413086</ele>
                <time>2008-12-13T08:30:20Z</time>
            </trkpt>
            <trkpt lon="100.966784" lat="14.687675">
                <ele>57.816528</ele>
                <time>2008-12-13T08:30:31Z</time>
            </trkpt>
            <trkpt lon="100.967232" lat="14.687735">
                <ele>63.584351</ele>
                <time>2008-12-13T08:30:45Z</time>
            </trkpt>
            <trkpt lon="100.967814" lat="14.687693">
                <ele>68.871582</ele>
                <time>2008-12-13T08:31:06Z</time>
            </trkpt>
            <trkpt lon="100.968217" lat="14.687611">
                <ele>70.313477</ele>
                <time>2008-12-13T08:31:21Z</time>
            </trkpt>
            <trkpt lon="100.968587" lat="14.687424">
                <ele>70.794190</ele>
                <time>2008-12-13T08:31:35Z</time>
            </trkpt>
            <trkpt lon="100.968719" lat="14.687371">
                <ele>71.274902</ele>
                <time>2008-12-13T08:31:43Z</time>
            </trkpt>
            <trkpt lon="100.968701" lat="14.687417">
                <ele>70.313477</ele>
                <time>2008-12-13T08:31:48Z</time>
            </trkpt>
            <trkpt lon="100.968347" lat="14.687548">
                <ele>69.832886</ele>
                <time>2008-12-13T08:32:03Z</time>
            </trkpt>
            <trkpt lon="100.968191" lat="14.687560">
                <ele>69.832886</ele>
                <time>2008-12-13T08:32:15Z</time>
            </trkpt>
            <trkpt lon="100.968183" lat="14.687566">
                <ele>69.832886</ele>
                <time>2008-12-13T08:32:30Z</time>
            </trkpt>
            <trkpt lon="100.968103" lat="14.687574">
                <ele>69.832886</ele>
                <time>2008-12-13T08:32:36Z</time>
            </trkpt>
            <trkpt lon="100.967845" lat="14.687352">
                <ele>66.468262</ele>
                <time>2008-12-13T08:32:45Z</time>
            </trkpt>
            <trkpt lon="100.967627" lat="14.687291">
                <ele>65.507080</ele>
                <time>2008-12-13T08:32:50Z</time>
            </trkpt>
            <trkpt lon="100.967504" lat="14.687245">
                <ele>64.545654</ele>
                <time>2008-12-13T08:32:53Z</time>
            </trkpt>
            <trkpt lon="100.967232" lat="14.687039">
                <ele>61.661743</ele>
                <time>2008-12-13T08:33:04Z</time>
            </trkpt>
            <trkpt lon="100.967198" lat="14.687102">
                <ele>61.181030</ele>
                <time>2008-12-13T08:33:10Z</time>
            </trkpt>
            <trkpt lon="100.967177" lat="14.687437">
                <ele>62.142334</ele>
                <time>2008-12-13T08:33:26Z</time>
            </trkpt>
            <trkpt lon="100.966694" lat="14.687540">
                <ele>59.739136</ele>
                <time>2008-12-13T08:33:38Z</time>
            </trkpt>
            <trkpt lon="100.966147" lat="14.687695">
                <ele>58.297119</ele>
                <time>2008-12-13T08:33:53Z</time>
            </trkpt>
            <trkpt lon="100.965960" lat="14.687709">
                <ele>57.816528</ele>
                <time>2008-12-13T08:34:01Z</time>
            </trkpt>
            <trkpt lon="100.965946" lat="14.687795">
                <ele>57.816528</ele>
                <time>2008-12-13T08:34:07Z</time>
            </trkpt>
            <trkpt lon="100.966094" lat="14.688136">
                <ele>57.335815</ele>
                <time>2008-12-13T08:34:21Z</time>
            </trkpt>
            <trkpt lon="100.966102" lat="14.688584">
                <ele>59.258423</ele>
                <time>2008-12-13T08:34:36Z</time>
            </trkpt>
            <trkpt lon="100.965959" lat="14.688884">
                <ele>60.700317</ele>
                <time>2008-12-13T08:34:47Z</time>
            </trkpt>
            <trkpt lon="100.965983" lat="14.689255">
                <ele>61.661743</ele>
                <time>2008-12-13T08:34:59Z</time>
            </trkpt>
            <trkpt lon="100.966120" lat="14.689813">
                <ele>62.142334</ele>
                <time>2008-12-13T08:35:16Z</time>
            </trkpt>
            <trkpt lon="100.966068" lat="14.690400">
                <ele>61.661743</ele>
                <time>2008-12-13T08:35:32Z</time>
            </trkpt>
            <trkpt lon="100.966036" lat="14.690602">
                <ele>61.181030</ele>
                <time>2008-12-13T08:35:37Z</time>
            </trkpt>
            <trkpt lon="100.965945" lat="14.690833">
                <ele>60.700317</ele>
                <time>2008-12-13T08:35:43Z</time>
            </trkpt>
            <trkpt lon="100.965689" lat="14.691401">
                <ele>63.103638</ele>
                <time>2008-12-13T08:35:58Z</time>
            </trkpt>
            <trkpt lon="100.965646" lat="14.691478">
                <ele>63.584351</ele>
                <time>2008-12-13T08:36:05Z</time>
            </trkpt>
            <trkpt lon="100.965641" lat="14.691791">
                <ele>63.584351</ele>
                <time>2008-12-13T08:36:19Z</time>
            </trkpt>
            <trkpt lon="100.965596" lat="14.692097">
                <ele>65.507080</ele>
                <time>2008-12-13T08:36:31Z</time>
            </trkpt>
            <trkpt lon="100.965554" lat="14.692195">
                <ele>66.948975</ele>
                <time>2008-12-13T08:36:44Z</time>
            </trkpt>
            <trkpt lon="100.965381" lat="14.692351">
                <ele>68.390869</ele>
                <time>2008-12-13T08:36:56Z</time>
            </trkpt>
            <trkpt lon="100.964887" lat="14.692559">
                <ele>69.352295</ele>
                <time>2008-12-13T08:37:13Z</time>
            </trkpt>
            <trkpt lon="100.964566" lat="14.692836">
                <ele>70.794190</ele>
                <time>2008-12-13T08:37:27Z</time>
            </trkpt>
            <trkpt lon="100.964214" lat="14.693053">
                <ele>70.794190</ele>
                <time>2008-12-13T08:37:38Z</time>
            </trkpt>
            <trkpt lon="100.963861" lat="14.693151">
                <ele>71.274902</ele>
                <time>2008-12-13T08:37:48Z</time>
            </trkpt>
            <trkpt lon="100.963647" lat="14.693273">
                <ele>71.755493</ele>
                <time>2008-12-13T08:37:57Z</time>
            </trkpt>
            <trkpt lon="100.963603" lat="14.693278">
                <ele>71.755493</ele>
                <time>2008-12-13T08:37:59Z</time>
            </trkpt>
            <trkpt lon="100.963559" lat="14.693312">
                <ele>72.236206</ele>
                <time>2008-12-13T08:38:02Z</time>
            </trkpt>
            <trkpt lon="100.963544" lat="14.693315">
                <ele>71.274902</ele>
                <time>2008-12-13T08:38:12Z</time>
            </trkpt>
            <trkpt lon="100.963555" lat="14.693302">
                <ele>71.274902</ele>
                <time>2008-12-13T08:38:22Z</time>
            </trkpt>
            <trkpt lon="100.963807" lat="14.693192">
                <ele>70.313477</ele>
                <time>2008-12-13T08:38:35Z</time>
            </trkpt>
            <trkpt lon="100.964110" lat="14.693087">
                <ele>69.832886</ele>
                <time>2008-12-13T08:38:48Z</time>
            </trkpt>
            <trkpt lon="100.964356" lat="14.692991">
                <ele>68.871582</ele>
                <time>2008-12-13T08:39:00Z</time>
            </trkpt>
            <trkpt lon="100.964604" lat="14.692806">
                <ele>68.390869</ele>
                <time>2008-12-13T08:39:13Z</time>
            </trkpt>
            <trkpt lon="100.964860" lat="14.692590">
                <ele>68.871582</ele>
                <time>2008-12-13T08:39:27Z</time>
            </trkpt>
            <trkpt lon="100.964861" lat="14.692592">
                <ele>68.871582</ele>
                <time>2008-12-13T08:39:30Z</time>
            </trkpt>
            <trkpt lon="100.965163" lat="14.692379">
                <ele>68.871582</ele>
                <time>2008-12-13T08:39:43Z</time>
            </trkpt>
            <trkpt lon="100.965311" lat="14.692312">
                <ele>68.871582</ele>
                <time>2008-12-13T08:39:46Z</time>
            </trkpt>
            <trkpt lon="100.965529" lat="14.692257">
                <ele>68.390869</ele>
                <time>2008-12-13T08:39:50Z</time>
            </trkpt>
            <trkpt lon="100.966246" lat="14.692043">
                <ele>66.948975</ele>
                <time>2008-12-13T08:40:03Z</time>
            </trkpt>
            <trkpt lon="100.966416" lat="14.691991">
                <ele>66.468262</ele>
                <time>2008-12-13T08:40:06Z</time>
            </trkpt>
            <trkpt lon="100.966679" lat="14.691936">
                <ele>67.910278</ele>
                <time>2008-12-13T08:40:11Z</time>
            </trkpt>
            <trkpt lon="100.966847" lat="14.691930">
                <ele>68.390869</ele>
                <time>2008-12-13T08:40:15Z</time>
            </trkpt>
            <trkpt lon="100.966931" lat="14.691927">
                <ele>68.390869</ele>
                <time>2008-12-13T08:40:17Z</time>
            </trkpt>
            <trkpt lon="100.967097" lat="14.691920">
                <ele>68.871582</ele>
                <time>2008-12-13T08:40:21Z</time>
            </trkpt>
            <trkpt lon="100.967533" lat="14.691904">
                <ele>71.755493</ele>
                <time>2008-12-13T08:40:35Z</time>
            </trkpt>
            <trkpt lon="100.968004" lat="14.691871">
                <ele>69.832886</ele>
                <time>2008-12-13T08:40:50Z</time>
            </trkpt>
            <trkpt lon="100.968136" lat="14.691857">
                <ele>68.871582</ele>
                <time>2008-12-13T08:40:53Z</time>
            </trkpt>
            <trkpt lon="100.968447" lat="14.691819">
                <ele>67.429688</ele>
                <time>2008-12-13T08:41:00Z</time>
            </trkpt>
            <trkpt lon="100.968747" lat="14.691782">
                <ele>66.948975</ele>
                <time>2008-12-13T08:41:06Z</time>
            </trkpt>
            <trkpt lon="100.968923" lat="14.691768">
                <ele>66.468262</ele>
                <time>2008-12-13T08:41:10Z</time>
            </trkpt>
            <trkpt lon="100.969346" lat="14.691768">
                <ele>65.987671</ele>
                <time>2008-12-13T08:41:18Z</time>
            </trkpt>
            <trkpt lon="100.969595" lat="14.691794">
                <ele>65.507080</ele>
                <time>2008-12-13T08:41:23Z</time>
            </trkpt>
            <trkpt lon="100.969811" lat="14.691874">
                <ele>65.026367</ele>
                <time>2008-12-13T08:41:29Z</time>
            </trkpt>
            <trkpt lon="100.969935" lat="14.691735">
                <ele>65.026367</ele>
                <time>2008-12-13T08:41:39Z</time>
            </trkpt>
            <trkpt lon="100.969939" lat="14.691732">
                <ele>65.026367</ele>
                <time>2008-12-13T08:41:55Z</time>
            </trkpt>
            <trkpt lon="100.969920" lat="14.691736">
                <ele>65.987671</ele>
                <time>2008-12-13T08:42:19Z</time>
            </trkpt>
            <trkpt lon="100.969891" lat="14.691750">
                <ele>67.910278</ele>
                <time>2008-12-13T08:45:24Z</time>
            </trkpt>
            <trkpt lon="100.969886" lat="14.691746">
                <ele>69.352295</ele>
                <time>2008-12-13T08:47:41Z</time>
            </trkpt>
            <trkpt lon="100.969905" lat="14.691738">
                <ele>67.429688</ele>
                <time>2008-12-13T08:49:11Z</time>
            </trkpt>
            <trkpt lon="100.969906" lat="14.691732">
                <ele>67.429688</ele>
                <time>2008-12-13T08:49:41Z</time>
            </trkpt>
            <trkpt lon="100.969905" lat="14.691736">
                <ele>68.390869</ele>
                <time>2008-12-13T08:50:44Z</time>
            </trkpt>
            <trkpt lon="100.969899" lat="14.691732">
                <ele>68.871582</ele>
                <time>2008-12-13T08:51:09Z</time>
            </trkpt>
            <trkpt lon="100.969906" lat="14.691747">
                <ele>67.429688</ele>
                <time>2008-12-13T08:59:06Z</time>
            </trkpt>
            <trkpt lon="100.969870" lat="14.691731">
                <ele>67.910278</ele>
                <time>2008-12-13T08:59:20Z</time>
            </trkpt>
            <trkpt lon="100.969861" lat="14.691724">
                <ele>67.429688</ele>
                <time>2008-12-13T09:00:01Z</time>
            </trkpt>
            <trkpt lon="100.969868" lat="14.691708">
                <ele>66.948975</ele>
                <time>2008-12-13T09:00:14Z</time>
            </trkpt>
            <trkpt lon="100.969948" lat="14.691579">
                <ele>67.910278</ele>
                <time>2008-12-13T09:00:55Z</time>
            </trkpt>
            <trkpt lon="100.970215" lat="14.691400">
                <ele>69.352295</ele>
                <time>2008-12-13T09:01:08Z</time>
            </trkpt>
            <trkpt lon="100.970441" lat="14.691300">
                <ele>69.832886</ele>
                <time>2008-12-13T09:01:22Z</time>
            </trkpt>
            <trkpt lon="100.970456" lat="14.691285">
                <ele>69.832886</ele>
                <time>2008-12-13T09:01:24Z</time>
            </trkpt>
            <trkpt lon="100.970716" lat="14.691213">
                <ele>71.755493</ele>
                <time>2008-12-13T09:01:38Z</time>
            </trkpt>
            <trkpt lon="100.971052" lat="14.691067">
                <ele>71.274902</ele>
                <time>2008-12-13T09:01:53Z</time>
            </trkpt>
            <trkpt lon="100.971461" lat="14.690794">
                <ele>70.794190</ele>
                <time>2008-12-13T09:02:06Z</time>
            </trkpt>
            <trkpt lon="100.971818" lat="14.690500">
                <ele>73.678223</ele>
                <time>2008-12-13T09:02:19Z</time>
            </trkpt>
            <trkpt lon="100.972106" lat="14.690210">
                <ele>76.562134</ele>
                <time>2008-12-13T09:02:34Z</time>
            </trkpt>
            <trkpt lon="100.972402" lat="14.689979">
                <ele>79.446045</ele>
                <time>2008-12-13T09:02:47Z</time>
            </trkpt>
            <trkpt lon="100.972711" lat="14.689760">
                <ele>78.965454</ele>
                <time>2008-12-13T09:03:00Z</time>
            </trkpt>
            <trkpt lon="100.972787" lat="14.689626">
                <ele>77.042847</ele>
                <time>2008-12-13T09:03:04Z</time>
            </trkpt>
            <trkpt lon="100.972938" lat="14.689562">
                <ele>74.639526</ele>
                <time>2008-12-13T09:03:08Z</time>
            </trkpt>
            <trkpt lon="100.973191" lat="14.689345">
                <ele>72.716919</ele>
                <time>2008-12-13T09:03:17Z</time>
            </trkpt>
            <trkpt lon="100.973494" lat="14.689227">
                <ele>71.274902</ele>
                <time>2008-12-13T09:03:26Z</time>
            </trkpt>
            <trkpt lon="100.973885" lat="14.689140">
                <ele>68.390869</ele>
                <time>2008-12-13T09:03:33Z</time>
            </trkpt>
            <trkpt lon="100.974160" lat="14.689119">
                <ele>66.948975</ele>
                <time>2008-12-13T09:03:38Z</time>
            </trkpt>
            <trkpt lon="100.974795" lat="14.688969">
                <ele>63.103638</ele>
                <time>2008-12-13T09:03:49Z</time>
            </trkpt>
            <trkpt lon="100.974957" lat="14.688947">
                <ele>62.622925</ele>
                <time>2008-12-13T09:03:52Z</time>
            </trkpt>
            <trkpt lon="100.975372" lat="14.689030">
                <ele>63.103638</ele>
                <time>2008-12-13T09:04:00Z</time>
            </trkpt>
            <trkpt lon="100.975733" lat="14.689160">
                <ele>62.622925</ele>
                <time>2008-12-13T09:04:10Z</time>
            </trkpt>
            <trkpt lon="100.975757" lat="14.689196">
                <ele>62.142334</ele>
                <time>2008-12-13T09:04:11Z</time>
            </trkpt>
            <trkpt lon="100.975984" lat="14.689603">
                <ele>59.739136</ele>
                <time>2008-12-13T09:04:21Z</time>
            </trkpt>
            <trkpt lon="100.976014" lat="14.689784">
                <ele>57.816528</ele>
                <time>2008-12-13T09:04:25Z</time>
            </trkpt>
            <trkpt lon="100.975956" lat="14.690145">
                <ele>58.297119</ele>
                <time>2008-12-13T09:04:37Z</time>
            </trkpt>
            <trkpt lon="100.975895" lat="14.690372">
                <ele>60.219727</ele>
                <time>2008-12-13T09:04:46Z</time>
            </trkpt>
            <trkpt lon="100.975717" lat="14.690446">
                <ele>61.661743</ele>
                <time>2008-12-13T09:04:56Z</time>
            </trkpt>
            <trkpt lon="100.975642" lat="14.690473">
                <ele>61.661743</ele>
                <time>2008-12-13T09:04:59Z</time>
            </trkpt>
            <trkpt lon="100.975321" lat="14.690662">
                <ele>63.584351</ele>
                <time>2008-12-13T09:05:12Z</time>
            </trkpt>
            <trkpt lon="100.975039" lat="14.690880">
                <ele>63.584351</ele>
                <time>2008-12-13T09:05:24Z</time>
            </trkpt>
            <trkpt lon="100.974632" lat="14.691081">
                <ele>65.507080</ele>
                <time>2008-12-13T09:05:37Z</time>
            </trkpt>
            <trkpt lon="100.974102" lat="14.691176">
                <ele>68.390869</ele>
                <time>2008-12-13T09:05:52Z</time>
            </trkpt>
            <trkpt lon="100.973864" lat="14.691422">
                <ele>68.390869</ele>
                <time>2008-12-13T09:06:03Z</time>
            </trkpt>
            <trkpt lon="100.973526" lat="14.691776">
                <ele>66.948975</ele>
                <time>2008-12-13T09:06:16Z</time>
            </trkpt>
            <trkpt lon="100.973368" lat="14.691947">
                <ele>65.987671</ele>
                <time>2008-12-13T09:06:25Z</time>
            </trkpt>
            <trkpt lon="100.973383" lat="14.692195">
                <ele>64.065063</ele>
                <time>2008-12-13T09:06:38Z</time>
            </trkpt>
            <trkpt lon="100.973406" lat="14.692669">
                <ele>62.622925</ele>
                <time>2008-12-13T09:06:55Z</time>
            </trkpt>
            <trkpt lon="100.973405" lat="14.693109">
                <ele>61.181030</ele>
                <time>2008-12-13T09:07:11Z</time>
            </trkpt>
            <trkpt lon="100.973426" lat="14.693551">
                <ele>59.258423</ele>
                <time>2008-12-13T09:07:25Z</time>
            </trkpt>
            <trkpt lon="100.973511" lat="14.693841">
                <ele>59.739136</ele>
                <time>2008-12-13T09:07:38Z</time>
            </trkpt>
            <trkpt lon="100.973475" lat="14.693821">
                <ele>59.258423</ele>
                <time>2008-12-13T09:07:43Z</time>
            </trkpt>
            <trkpt lon="100.973460" lat="14.693594">
                <ele>59.739136</ele>
                <time>2008-12-13T09:07:50Z</time>
            </trkpt>
            <trkpt lon="100.973402" lat="14.693382">
                <ele>59.258423</ele>
                <time>2008-12-13T09:07:55Z</time>
            </trkpt>
            <trkpt lon="100.973395" lat="14.692702">
                <ele>61.181030</ele>
                <time>2008-12-13T09:08:10Z</time>
            </trkpt>
            <trkpt lon="100.973411" lat="14.691966">
                <ele>63.103638</ele>
                <time>2008-12-13T09:08:28Z</time>
            </trkpt>
            <trkpt lon="100.973617" lat="14.691656">
                <ele>63.584351</ele>
                <time>2008-12-13T09:08:41Z</time>
            </trkpt>
            <trkpt lon="100.973633" lat="14.691640">
                <ele>63.584351</ele>
                <time>2008-12-13T09:08:42Z</time>
            </trkpt>
            <trkpt lon="100.973727" lat="14.691657">
                <ele>63.584351</ele>
                <time>2008-12-13T09:08:48Z</time>
            </trkpt>
            <trkpt lon="100.973747" lat="14.691680">
                <ele>64.545654</ele>
                <time>2008-12-13T09:09:06Z</time>
            </trkpt>
            <trkpt lon="100.973748" lat="14.691682">
                <ele>64.545654</ele>
                <time>2008-12-13T09:09:09Z</time>
            </trkpt>
            <trkpt lon="100.973561" lat="14.691752">
                <ele>65.026367</ele>
                <time>2008-12-13T09:09:19Z</time>
            </trkpt>
            <trkpt lon="100.973497" lat="14.691794">
                <ele>64.545654</ele>
                <time>2008-12-13T09:09:21Z</time>
            </trkpt>
            <trkpt lon="100.973277" lat="14.691982">
                <ele>64.545654</ele>
                <time>2008-12-13T09:09:27Z</time>
            </trkpt>
            <trkpt lon="100.973142" lat="14.691982">
                <ele>64.545654</ele>
                <time>2008-12-13T09:09:30Z</time>
            </trkpt>
            <trkpt lon="100.972581" lat="14.691954">
                <ele>65.987671</ele>
                <time>2008-12-13T09:09:42Z</time>
            </trkpt>
            <trkpt lon="100.972208" lat="14.692010">
                <ele>65.026367</ele>
                <time>2008-12-13T09:09:49Z</time>
            </trkpt>
            <trkpt lon="100.971780" lat="14.692283">
                <ele>65.026367</ele>
                <time>2008-12-13T09:10:00Z</time>
            </trkpt>
            <trkpt lon="100.971637" lat="14.692300">
                <ele>64.065063</ele>
                <time>2008-12-13T09:10:04Z</time>
            </trkpt>
            <trkpt lon="100.971537" lat="14.692313">
                <ele>64.065063</ele>
                <time>2008-12-13T09:10:06Z</time>
            </trkpt>
            <trkpt lon="100.971265" lat="14.692326">
                <ele>64.065063</ele>
                <time>2008-12-13T09:10:15Z</time>
            </trkpt>
            <trkpt lon="100.971206" lat="14.692326">
                <ele>63.584351</ele>
                <time>2008-12-13T09:10:18Z</time>
            </trkpt>
            <trkpt lon="100.971206" lat="14.692326">
                <ele>62.622925</ele>
                <time>2008-12-13T09:10:27Z</time>
            </trkpt>
            <trkpt lon="100.971206" lat="14.692326">
                <ele>61.661743</ele>
                <time>2008-12-13T09:10:43Z</time>
            </trkpt>
            <trkpt lon="100.971524" lat="14.692315">
                <ele>61.661743</ele>
                <time>2008-12-13T09:10:56Z</time>
            </trkpt>
            <trkpt lon="100.971897" lat="14.692208">
                <ele>61.661743</ele>
                <time>2008-12-13T09:11:06Z</time>
            </trkpt>
            <trkpt lon="100.972020" lat="14.692130">
                <ele>62.142334</ele>
                <time>2008-12-13T09:11:10Z</time>
            </trkpt>
            <trkpt lon="100.972487" lat="14.691942">
                <ele>61.661743</ele>
                <time>2008-12-13T09:11:24Z</time>
            </trkpt>
            <trkpt lon="100.973123" lat="14.691982">
                <ele>62.622925</ele>
                <time>2008-12-13T09:11:37Z</time>
            </trkpt>
            <trkpt lon="100.973172" lat="14.691982">
                <ele>62.622925</ele>
                <time>2008-12-13T09:11:38Z</time>
            </trkpt>
            <trkpt lon="100.973307" lat="14.691982">
                <ele>62.622925</ele>
                <time>2008-12-13T09:11:41Z</time>
            </trkpt>
            <trkpt lon="100.973618" lat="14.691909">
                <ele>62.622925</ele>
                <time>2008-12-13T09:11:47Z</time>
            </trkpt>
            <trkpt lon="100.973816" lat="14.691857">
                <ele>62.622925</ele>
                <time>2008-12-13T09:11:51Z</time>
            </trkpt>
            <trkpt lon="100.974445" lat="14.691692">
                <ele>62.622925</ele>
                <time>2008-12-13T09:12:03Z</time>
            </trkpt>
            <trkpt lon="100.974743" lat="14.691645">
                <ele>61.661743</ele>
                <time>2008-12-13T09:12:08Z</time>
            </trkpt>
            <trkpt lon="100.974991" lat="14.691651">
                <ele>61.181030</ele>
                <time>2008-12-13T09:12:12Z</time>
            </trkpt>
            <trkpt lon="100.976156" lat="14.692028">
                <ele>57.335815</ele>
                <time>2008-12-13T09:12:29Z</time>
            </trkpt>
            <trkpt lon="100.977378" lat="14.692464">
                <ele>53.009766</ele>
                <time>2008-12-13T09:12:45Z</time>
            </trkpt>
            <trkpt lon="100.978389" lat="14.692835">
                <ele>50.125977</ele>
                <time>2008-12-13T09:13:00Z</time>
            </trkpt>
            <trkpt lon="100.979074" lat="14.693091">
                <ele>46.761231</ele>
                <time>2008-12-13T09:13:13Z</time>
            </trkpt>
            <trkpt lon="100.979317" lat="14.693193">
                <ele>44.838623</ele>
                <time>2008-12-13T09:13:17Z</time>
            </trkpt>
            <trkpt lon="100.979653" lat="14.693334">
                <ele>45.799927</ele>
                <time>2008-12-13T09:13:23Z</time>
            </trkpt>
            <trkpt lon="100.979900" lat="14.693157">
                <ele>46.761231</ele>
                <time>2008-12-13T09:13:31Z</time>
            </trkpt>
            <trkpt lon="100.980206" lat="14.692379">
                <ele>48.683960</ele>
                <time>2008-12-13T09:13:44Z</time>
            </trkpt>
            <trkpt lon="100.980604" lat="14.691367">
                <ele>52.048584</ele>
                <time>2008-12-13T09:14:02Z</time>
            </trkpt>
            <trkpt lon="100.981086" lat="14.690140">
                <ele>52.529175</ele>
                <time>2008-12-13T09:14:22Z</time>
            </trkpt>
            <trkpt lon="100.981564" lat="14.688923">
                <ele>53.009766</ele>
                <time>2008-12-13T09:14:42Z</time>
            </trkpt>
            <trkpt lon="100.982105" lat="14.687548">
                <ele>53.009766</ele>
                <time>2008-12-13T09:15:04Z</time>
            </trkpt>
            <trkpt lon="100.982188" lat="14.687336">
                <ele>53.490479</ele>
                <time>2008-12-13T09:15:08Z</time>
            </trkpt>
            <trkpt lon="100.982498" lat="14.687260">
                <ele>53.490479</ele>
                <time>2008-12-13T09:15:15Z</time>
            </trkpt>
            <trkpt lon="100.983605" lat="14.687640">
                <ele>56.855103</ele>
                <time>2008-12-13T09:15:35Z</time>
            </trkpt>
            <trkpt lon="100.984548" lat="14.687956">
                <ele>54.932373</ele>
                <time>2008-12-13T09:15:51Z</time>
            </trkpt>
            <trkpt lon="100.985583" lat="14.688358">
                <ele>49.164551</ele>
                <time>2008-12-13T09:16:04Z</time>
            </trkpt>
            <trkpt lon="100.987115" lat="14.688807">
                <ele>43.877319</ele>
                <time>2008-12-13T09:16:21Z</time>
            </trkpt>
            <trkpt lon="100.988441" lat="14.689194">
                <ele>40.512817</ele>
                <time>2008-12-13T09:16:36Z</time>
            </trkpt>
            <trkpt lon="100.989930" lat="14.689628">
                <ele>37.628662</ele>
                <time>2008-12-13T09:16:53Z</time>
            </trkpt>
            <trkpt lon="100.990552" lat="14.689810">
                <ele>35.706055</ele>
                <time>2008-12-13T09:17:03Z</time>
            </trkpt>
            <trkpt lon="100.990729" lat="14.689861">
                <ele>35.706055</ele>
                <time>2008-12-13T09:17:06Z</time>
            </trkpt>
            <trkpt lon="100.990980" lat="14.689934">
                <ele>35.225464</ele>
                <time>2008-12-13T09:17:10Z</time>
            </trkpt>
            <trkpt lon="100.991230" lat="14.690007">
                <ele>35.225464</ele>
                <time>2008-12-13T09:17:14Z</time>
            </trkpt>
            <trkpt lon="100.991564" lat="14.690105">
                <ele>35.706055</ele>
                <time>2008-12-13T09:17:19Z</time>
            </trkpt>
            <trkpt lon="100.991907" lat="14.690204">
                <ele>35.706055</ele>
                <time>2008-12-13T09:17:25Z</time>
            </trkpt>
            <trkpt lon="100.992153" lat="14.690272">
                <ele>35.706055</ele>
                <time>2008-12-13T09:17:29Z</time>
            </trkpt>
            <trkpt lon="100.993510" lat="14.690649">
                <ele>35.706055</ele>
                <time>2008-12-13T09:17:50Z</time>
            </trkpt>
            <trkpt lon="100.994723" lat="14.690986">
                <ele>35.706055</ele>
                <time>2008-12-13T09:18:09Z</time>
            </trkpt>
            <trkpt lon="100.995712" lat="14.691261">
                <ele>36.186768</ele>
                <time>2008-12-13T09:18:24Z</time>
            </trkpt>
            <trkpt lon="100.996837" lat="14.691573">
                <ele>36.186768</ele>
                <time>2008-12-13T09:18:40Z</time>
            </trkpt>
            <trkpt lon="100.998346" lat="14.691992">
                <ele>36.667481</ele>
                <time>2008-12-13T09:19:02Z</time>
            </trkpt>
            <trkpt lon="100.999540" lat="14.692385">
                <ele>36.667481</ele>
                <time>2008-12-13T09:19:20Z</time>
            </trkpt>
            <trkpt lon="100.999949" lat="14.692247">
                <ele>36.667481</ele>
                <time>2008-12-13T09:19:25Z</time>
            </trkpt>
            <trkpt lon="101.000529" lat="14.691385">
                <ele>32.341553</ele>
                <time>2008-12-13T09:19:40Z</time>
            </trkpt>
            <trkpt lon="101.001365" lat="14.690669">
                <ele>29.938110</ele>
                <time>2008-12-13T09:19:53Z</time>
            </trkpt>
            <trkpt lon="101.001666" lat="14.690120">
                <ele>28.496216</ele>
                <time>2008-12-13T09:20:02Z</time>
            </trkpt>
            <trkpt lon="101.002082" lat="14.689016">
                <ele>26.573608</ele>
                <time>2008-12-13T09:20:14Z</time>
            </trkpt>
            <trkpt lon="101.002250" lat="14.688821">
                <ele>26.573608</ele>
                <time>2008-12-13T09:20:17Z</time>
            </trkpt>
            <trkpt lon="101.002222" lat="14.688365">
                <ele>26.092896</ele>
                <time>2008-12-13T09:20:23Z</time>
            </trkpt>
            <trkpt lon="101.001992" lat="14.687914">
                <ele>26.573608</ele>
                <time>2008-12-13T09:20:29Z</time>
            </trkpt>
            <trkpt lon="101.002136" lat="14.687590">
                <ele>25.612305</ele>
                <time>2008-12-13T09:20:34Z</time>
            </trkpt>
            <trkpt lon="101.003143" lat="14.686855">
                <ele>24.170288</ele>
                <time>2008-12-13T09:20:50Z</time>
            </trkpt>
            <trkpt lon="101.003225" lat="14.686463">
                <ele>23.689575</ele>
                <time>2008-12-13T09:20:56Z</time>
            </trkpt>
            <trkpt lon="101.002942" lat="14.685825">
                <ele>24.170288</ele>
                <time>2008-12-13T09:21:05Z</time>
            </trkpt>
            <trkpt lon="101.002997" lat="14.685527">
                <ele>24.170288</ele>
                <time>2008-12-13T09:21:10Z</time>
            </trkpt>
            <trkpt lon="101.003196" lat="14.685256">
                <ele>23.208984</ele>
                <time>2008-12-13T09:21:14Z</time>
            </trkpt>
            <trkpt lon="101.003482" lat="14.684750">
                <ele>22.247559</ele>
                <time>2008-12-13T09:21:21Z</time>
            </trkpt>
            <trkpt lon="101.004378" lat="14.684295">
                <ele>22.247559</ele>
                <time>2008-12-13T09:21:34Z</time>
            </trkpt>
            <trkpt lon="101.004769" lat="14.684119">
                <ele>22.247559</ele>
                <time>2008-12-13T09:21:40Z</time>
            </trkpt>
            <trkpt lon="101.004967" lat="14.684111">
                <ele>22.247559</ele>
                <time>2008-12-13T09:21:43Z</time>
            </trkpt>
            <trkpt lon="101.005341" lat="14.683857">
                <ele>21.766968</ele>
                <time>2008-12-13T09:21:50Z</time>
            </trkpt>
            <trkpt lon="101.005603" lat="14.684123">
                <ele>21.766968</ele>
                <time>2008-12-13T09:21:52Z</time>
            </trkpt>
            <trkpt lon="101.005829" lat="14.684001">
                <ele>21.286377</ele>
                <time>2008-12-13T09:21:56Z</time>
            </trkpt>
            <trkpt lon="101.006120" lat="14.683846">
                <ele>22.247559</ele>
                <time>2008-12-13T09:22:01Z</time>
            </trkpt>
            <trkpt lon="101.006782" lat="14.683459">
                <ele>23.208984</ele>
                <time>2008-12-13T09:22:13Z</time>
            </trkpt>
            <trkpt lon="101.007485" lat="14.683271">
                <ele>23.208984</ele>
                <time>2008-12-13T09:22:23Z</time>
            </trkpt>
            <trkpt lon="101.007736" lat="14.682616">
                <ele>20.805664</ele>
                <time>2008-12-13T09:22:32Z</time>
            </trkpt>
            <trkpt lon="101.007892" lat="14.682281">
                <ele>19.844360</ele>
                <time>2008-12-13T09:22:39Z</time>
            </trkpt>
            <trkpt lon="101.008060" lat="14.682185">
                <ele>19.844360</ele>
                <time>2008-12-13T09:22:42Z</time>
            </trkpt>
            <trkpt lon="101.008203" lat="14.681979">
                <ele>19.363770</ele>
                <time>2008-12-13T09:22:46Z</time>
            </trkpt>
            <trkpt lon="101.008237" lat="14.681851">
                <ele>19.363770</ele>
                <time>2008-12-13T09:22:48Z</time>
            </trkpt>
            <trkpt lon="101.008461" lat="14.681620">
                <ele>19.363770</ele>
                <time>2008-12-13T09:22:53Z</time>
            </trkpt>
            <trkpt lon="101.008646" lat="14.681534">
                <ele>19.363770</ele>
                <time>2008-12-13T09:22:56Z</time>
            </trkpt>
            <trkpt lon="101.009117" lat="14.680949">
                <ele>19.363770</ele>
                <time>2008-12-13T09:23:07Z</time>
            </trkpt>
            <trkpt lon="101.009371" lat="14.680693">
                <ele>19.363770</ele>
                <time>2008-12-13T09:23:12Z</time>
            </trkpt>
            <trkpt lon="101.009727" lat="14.680436">
                <ele>19.363770</ele>
                <time>2008-12-13T09:23:18Z</time>
            </trkpt>
            <trkpt lon="101.010064" lat="14.680319">
                <ele>19.844360</ele>
                <time>2008-12-13T09:23:23Z</time>
            </trkpt>
            <trkpt lon="101.010356" lat="14.680309">
                <ele>20.324951</ele>
                <time>2008-12-13T09:23:27Z</time>
            </trkpt>
            <trkpt lon="101.010701" lat="14.680195">
                <ele>20.324951</ele>
                <time>2008-12-13T09:23:32Z</time>
            </trkpt>
            <trkpt lon="101.011455" lat="14.679536">
                <ele>19.363770</ele>
                <time>2008-12-13T09:23:46Z</time>
            </trkpt>
            <trkpt lon="101.011710" lat="14.679302">
                <ele>18.883057</ele>
                <time>2008-12-13T09:23:51Z</time>
            </trkpt>
            <trkpt lon="101.012037" lat="14.679176">
                <ele>18.402344</ele>
                <time>2008-12-13T09:23:56Z</time>
            </trkpt>
            <trkpt lon="101.012226" lat="14.679091">
                <ele>18.402344</ele>
                <time>2008-12-13T09:23:59Z</time>
            </trkpt>
            <trkpt lon="101.012485" lat="14.678598">
                <ele>18.402344</ele>
                <time>2008-12-13T09:24:07Z</time>
            </trkpt>
            <trkpt lon="101.012537" lat="14.678172">
                <ele>17.441162</ele>
                <time>2008-12-13T09:24:13Z</time>
            </trkpt>
            <trkpt lon="101.012495" lat="14.677901">
                <ele>15.999023</ele>
                <time>2008-12-13T09:24:17Z</time>
            </trkpt>
            <trkpt lon="101.012368" lat="14.677571">
                <ele>15.518433</ele>
                <time>2008-12-13T09:24:22Z</time>
            </trkpt>
            <trkpt lon="101.012353" lat="14.677291">
                <ele>14.557007</ele>
                <time>2008-12-13T09:24:26Z</time>
            </trkpt>
            <trkpt lon="101.012374" lat="14.677152">
                <ele>14.557007</ele>
                <time>2008-12-13T09:24:28Z</time>
            </trkpt>
            <trkpt lon="101.012534" lat="14.676351">
                <ele>14.076416</ele>
                <time>2008-12-13T09:24:40Z</time>
            </trkpt>
            <trkpt lon="101.012533" lat="14.676076">
                <ele>13.595825</ele>
                <time>2008-12-13T09:24:44Z</time>
            </trkpt>
            <trkpt lon="101.012669" lat="14.675416">
                <ele>15.037720</ele>
                <time>2008-12-13T09:24:54Z</time>
            </trkpt>
            <trkpt lon="101.012871" lat="14.675192">
                <ele>15.037720</ele>
                <time>2008-12-13T09:24:59Z</time>
            </trkpt>
            <trkpt lon="101.013736" lat="14.674611">
                <ele>17.441162</ele>
                <time>2008-12-13T09:25:15Z</time>
            </trkpt>
            <trkpt lon="101.014326" lat="14.674233">
                <ele>16.960449</ele>
                <time>2008-12-13T09:25:27Z</time>
            </trkpt>
            <trkpt lon="101.014488" lat="14.674023">
                <ele>16.960449</ele>
                <time>2008-12-13T09:25:33Z</time>
            </trkpt>
            <trkpt lon="101.014581" lat="14.673988">
                <ele>17.441162</ele>
                <time>2008-12-13T09:25:35Z</time>
            </trkpt>
            <trkpt lon="101.015239" lat="14.673713">
                <ele>17.441162</ele>
                <time>2008-12-13T09:25:48Z</time>
            </trkpt>
            <trkpt lon="101.015496" lat="14.673632">
                <ele>17.441162</ele>
                <time>2008-12-13T09:25:53Z</time>
            </trkpt>
            <trkpt lon="101.015641" lat="14.673565">
                <ele>16.960449</ele>
                <time>2008-12-13T09:25:56Z</time>
            </trkpt>
            <trkpt lon="101.016247" lat="14.673333">
                <ele>16.479736</ele>
                <time>2008-12-13T09:26:08Z</time>
            </trkpt>
            <trkpt lon="101.016888" lat="14.673088">
                <ele>15.518433</ele>
                <time>2008-12-13T09:26:21Z</time>
            </trkpt>
            <trkpt lon="101.017180" lat="14.672995">
                <ele>15.999023</ele>
                <time>2008-12-13T09:26:27Z</time>
            </trkpt>
            <trkpt lon="101.017672" lat="14.672809">
                <ele>16.479736</ele>
                <time>2008-12-13T09:26:39Z</time>
            </trkpt>
            <trkpt lon="101.017760" lat="14.672787">
                <ele>16.479736</ele>
                <time>2008-12-13T09:26:41Z</time>
            </trkpt>
            <trkpt lon="101.018165" lat="14.672659">
                <ele>16.960449</ele>
                <time>2008-12-13T09:26:50Z</time>
            </trkpt>
            <trkpt lon="101.018574" lat="14.672502">
                <ele>16.960449</ele>
                <time>2008-12-13T09:27:01Z</time>
            </trkpt>
            <trkpt lon="101.018637" lat="14.672358">
                <ele>16.479736</ele>
                <time>2008-12-13T09:27:05Z</time>
            </trkpt>
            <trkpt lon="101.018646" lat="14.672233">
                <ele>15.999023</ele>
                <time>2008-12-13T09:27:08Z</time>
            </trkpt>
            <trkpt lon="101.018835" lat="14.672120">
                <ele>15.037720</ele>
                <time>2008-12-13T09:27:13Z</time>
            </trkpt>
            <trkpt lon="101.019240" lat="14.671963">
                <ele>16.479736</ele>
                <time>2008-12-13T09:27:24Z</time>
            </trkpt>
            <trkpt lon="101.019432" lat="14.671883">
                <ele>15.518433</ele>
                <time>2008-12-13T09:27:29Z</time>
            </trkpt>
            <trkpt lon="101.019603" lat="14.671879">
                <ele>15.518433</ele>
                <time>2008-12-13T09:27:33Z</time>
            </trkpt>
            <trkpt lon="101.019708" lat="14.671942">
                <ele>17.441162</ele>
                <time>2008-12-13T09:27:42Z</time>
            </trkpt>
            <trkpt lon="101.019744" lat="14.671982">
                <ele>19.363770</ele>
                <time>2008-12-13T09:27:56Z</time>
            </trkpt>
            <trkpt lon="101.019827" lat="14.672019">
                <ele>19.363770</ele>
                <time>2008-12-13T09:28:04Z</time>
            </trkpt>
            <trkpt lon="101.020223" lat="14.671939">
                <ele>19.844360</ele>
                <time>2008-12-13T09:28:17Z</time>
            </trkpt>
            <trkpt lon="101.020352" lat="14.672112">
                <ele>19.844360</ele>
                <time>2008-12-13T09:28:24Z</time>
            </trkpt>
            <trkpt lon="101.020577" lat="14.672638">
                <ele>20.324951</ele>
                <time>2008-12-13T09:28:35Z</time>
            </trkpt>
            <trkpt lon="101.021017" lat="14.673688">
                <ele>20.324951</ele>
                <time>2008-12-13T09:28:52Z</time>
            </trkpt>
            <trkpt lon="101.021269" lat="14.674341">
                <ele>20.324951</ele>
                <time>2008-12-13T09:29:02Z</time>
            </trkpt>
            <trkpt lon="101.021304" lat="14.674975">
                <ele>20.805664</ele>
                <time>2008-12-13T09:29:11Z</time>
            </trkpt>
            <trkpt lon="101.021690" lat="14.676050">
                <ele>22.247559</ele>
                <time>2008-12-13T09:29:27Z</time>
            </trkpt>
            <trkpt lon="101.022089" lat="14.677214">
                <ele>21.766968</ele>
                <time>2008-12-13T09:29:45Z</time>
            </trkpt>
            <trkpt lon="101.022440" lat="14.678566">
                <ele>23.689575</ele>
                <time>2008-12-13T09:30:07Z</time>
            </trkpt>
            <trkpt lon="101.022608" lat="14.680043">
                <ele>24.170288</ele>
                <time>2008-12-13T09:30:30Z</time>
            </trkpt>
            <trkpt lon="101.022712" lat="14.680276">
                <ele>24.170288</ele>
                <time>2008-12-13T09:30:34Z</time>
            </trkpt>
            <trkpt lon="101.022888" lat="14.680467">
                <ele>24.651001</ele>
                <time>2008-12-13T09:30:38Z</time>
            </trkpt>
            <trkpt lon="101.024279" lat="14.681510">
                <ele>22.728272</ele>
                <time>2008-12-13T09:31:03Z</time>
            </trkpt>
            <trkpt lon="101.025159" lat="14.682362">
                <ele>22.728272</ele>
                <time>2008-12-13T09:31:20Z</time>
            </trkpt>
            <trkpt lon="101.025423" lat="14.682483">
                <ele>22.728272</ele>
                <time>2008-12-13T09:31:24Z</time>
            </trkpt>
            <trkpt lon="101.025564" lat="14.682505">
                <ele>22.728272</ele>
                <time>2008-12-13T09:31:26Z</time>
            </trkpt>
            <trkpt lon="101.026214" lat="14.682604">
                <ele>21.766968</ele>
                <time>2008-12-13T09:31:35Z</time>
            </trkpt>
            <trkpt lon="101.026520" lat="14.683050">
                <ele>20.805664</ele>
                <time>2008-12-13T09:31:43Z</time>
            </trkpt>
            <trkpt lon="101.026692" lat="14.683347">
                <ele>20.805664</ele>
                <time>2008-12-13T09:31:49Z</time>
            </trkpt>
            <trkpt lon="101.027290" lat="14.683822">
                <ele>21.286377</ele>
                <time>2008-12-13T09:32:00Z</time>
            </trkpt>
            <trkpt lon="101.027458" lat="14.684047">
                <ele>21.766968</ele>
                <time>2008-12-13T09:32:04Z</time>
            </trkpt>
            <trkpt lon="101.027884" lat="14.685474">
                <ele>23.689575</ele>
                <time>2008-12-13T09:32:26Z</time>
            </trkpt>
            <trkpt lon="101.027894" lat="14.685878">
                <ele>23.689575</ele>
                <time>2008-12-13T09:32:32Z</time>
            </trkpt>
            <trkpt lon="101.027672" lat="14.687043">
                <ele>24.170288</ele>
                <time>2008-12-13T09:32:50Z</time>
            </trkpt>
            <trkpt lon="101.027911" lat="14.687987">
                <ele>24.170288</ele>
                <time>2008-12-13T09:33:05Z</time>
            </trkpt>
            <trkpt lon="101.028026" lat="14.688138">
                <ele>24.651001</ele>
                <time>2008-12-13T09:33:08Z</time>
            </trkpt>
            <trkpt lon="101.028240" lat="14.688273">
                <ele>24.170288</ele>
                <time>2008-12-13T09:33:12Z</time>
            </trkpt>
            <trkpt lon="101.029229" lat="14.688780">
                <ele>21.286377</ele>
                <time>2008-12-13T09:33:29Z</time>
            </trkpt>
            <trkpt lon="101.030237" lat="14.689240">
                <ele>22.247559</ele>
                <time>2008-12-13T09:33:46Z</time>
            </trkpt>
            <trkpt lon="101.031033" lat="14.690101">
                <ele>23.208984</ele>
                <time>2008-12-13T09:34:04Z</time>
            </trkpt>
            <trkpt lon="101.031330" lat="14.690526">
                <ele>22.728272</ele>
                <time>2008-12-13T09:34:12Z</time>
            </trkpt>
            <trkpt lon="101.032033" lat="14.690867">
                <ele>22.728272</ele>
                <time>2008-12-13T09:34:24Z</time>
            </trkpt>
            <trkpt lon="101.032985" lat="14.690813">
                <ele>21.766968</ele>
                <time>2008-12-13T09:34:38Z</time>
            </trkpt>
            <trkpt lon="101.034166" lat="14.690460">
                <ele>21.286377</ele>
                <time>2008-12-13T09:34:55Z</time>
            </trkpt>
            <trkpt lon="101.035574" lat="14.690186">
                <ele>19.363770</ele>
                <time>2008-12-13T09:35:13Z</time>
            </trkpt>
            <trkpt lon="101.035915" lat="14.689977">
                <ele>19.363770</ele>
                <time>2008-12-13T09:35:18Z</time>
            </trkpt>
            <trkpt lon="101.036704" lat="14.689260">
                <ele>19.844360</ele>
                <time>2008-12-13T09:35:33Z</time>
            </trkpt>
            <trkpt lon="101.038071" lat="14.688607">
                <ele>22.247559</ele>
                <time>2008-12-13T09:35:56Z</time>
            </trkpt>
            <trkpt lon="101.039043" lat="14.687888">
                <ele>23.208984</ele>
                <time>2008-12-13T09:36:14Z</time>
            </trkpt>
            <trkpt lon="101.039755" lat="14.687111">
                <ele>22.247559</ele>
                <time>2008-12-13T09:36:29Z</time>
            </trkpt>
            <trkpt lon="101.040424" lat="14.686841">
                <ele>22.247559</ele>
                <time>2008-12-13T09:36:39Z</time>
            </trkpt>
            <trkpt lon="101.040490" lat="14.686868">
                <ele>22.247559</ele>
                <time>2008-12-13T09:36:40Z</time>
            </trkpt>
            <trkpt lon="101.041254" lat="14.687194">
                <ele>20.805664</ele>
                <time>2008-12-13T09:36:52Z</time>
            </trkpt>
            <trkpt lon="101.041468" lat="14.687301">
                <ele>21.286377</ele>
                <time>2008-12-13T09:36:57Z</time>
            </trkpt>
            <trkpt lon="101.041515" lat="14.687325">
                <ele>20.805664</ele>
                <time>2008-12-13T09:37:09Z</time>
            </trkpt>
            <trkpt lon="101.041515" lat="14.687325">
                <ele>21.766968</ele>
                <time>2008-12-13T09:37:35Z</time>
            </trkpt>
            <trkpt lon="101.041633" lat="14.687384">
                <ele>22.247559</ele>
                <time>2008-12-13T09:37:47Z</time>
            </trkpt>
            <trkpt lon="101.041885" lat="14.687510">
                <ele>23.208984</ele>
                <time>2008-12-13T09:38:16Z</time>
            </trkpt>
            <trkpt lon="101.042335" lat="14.687691">
                <ele>23.208984</ele>
                <time>2008-12-13T09:38:24Z</time>
            </trkpt>
            <trkpt lon="101.042664" lat="14.687691">
                <ele>23.689575</ele>
                <time>2008-12-13T09:38:29Z</time>
            </trkpt>
            <trkpt lon="101.043825" lat="14.687269">
                <ele>23.689575</ele>
                <time>2008-12-13T09:38:47Z</time>
            </trkpt>
            <trkpt lon="101.044416" lat="14.686974">
                <ele>21.766968</ele>
                <time>2008-12-13T09:38:57Z</time>
            </trkpt>
            <trkpt lon="101.044678" lat="14.686961">
                <ele>22.247559</ele>
                <time>2008-12-13T09:39:02Z</time>
            </trkpt>
            <trkpt lon="101.045218" lat="14.687578">
                <ele>23.689575</ele>
                <time>2008-12-13T09:39:15Z</time>
            </trkpt>
            <trkpt lon="101.045317" lat="14.687794">
                <ele>23.689575</ele>
                <time>2008-12-13T09:39:20Z</time>
            </trkpt>
            <trkpt lon="101.045638" lat="14.688077">
                <ele>21.766968</ele>
                <time>2008-12-13T09:39:27Z</time>
            </trkpt>
            <trkpt lon="101.045839" lat="14.688386">
                <ele>23.208984</ele>
                <time>2008-12-13T09:39:33Z</time>
            </trkpt>
            <trkpt lon="101.046041" lat="14.688870">
                <ele>23.689575</ele>
                <time>2008-12-13T09:39:43Z</time>
            </trkpt>
            <trkpt lon="101.046093" lat="14.689518">
                <ele>22.247559</ele>
                <time>2008-12-13T09:39:53Z</time>
            </trkpt>
            <trkpt lon="101.046360" lat="14.690159">
                <ele>23.208984</ele>
                <time>2008-12-13T09:40:05Z</time>
            </trkpt>
            <trkpt lon="101.046608" lat="14.690366">
                <ele>23.689575</ele>
                <time>2008-12-13T09:40:11Z</time>
            </trkpt>
            <trkpt lon="101.047256" lat="14.690634">
                <ele>20.324951</ele>
                <time>2008-12-13T09:40:24Z</time>
            </trkpt>
            <trkpt lon="101.047711" lat="14.690702">
                <ele>21.766968</ele>
                <time>2008-12-13T09:40:33Z</time>
            </trkpt>
            <trkpt lon="101.048038" lat="14.690885">
                <ele>20.805664</ele>
                <time>2008-12-13T09:40:42Z</time>
            </trkpt>
            <trkpt lon="101.048068" lat="14.691012">
                <ele>21.286377</ele>
                <time>2008-12-13T09:40:45Z</time>
            </trkpt>
            <trkpt lon="101.048131" lat="14.691131">
                <ele>21.286377</ele>
                <time>2008-12-13T09:40:48Z</time>
            </trkpt>
            <trkpt lon="101.048312" lat="14.691255">
                <ele>20.805664</ele>
                <time>2008-12-13T09:40:53Z</time>
            </trkpt>
            <trkpt lon="101.048385" lat="14.691270">
                <ele>20.324951</ele>
                <time>2008-12-13T09:40:55Z</time>
            </trkpt>
            <trkpt lon="101.048333" lat="14.691503">
                <ele>20.805664</ele>
                <time>2008-12-13T09:41:03Z</time>
            </trkpt>
            <trkpt lon="101.048249" lat="14.691536">
                <ele>19.844360</ele>
                <time>2008-12-13T09:41:05Z</time>
            </trkpt>
            <trkpt lon="101.048024" lat="14.691579">
                <ele>19.844360</ele>
                <time>2008-12-13T09:41:10Z</time>
            </trkpt>
            <trkpt lon="101.047836" lat="14.691737">
                <ele>19.363770</ele>
                <time>2008-12-13T09:41:18Z</time>
            </trkpt>
            <trkpt lon="101.047809" lat="14.691744">
                <ele>19.844360</ele>
                <time>2008-12-13T09:41:20Z</time>
            </trkpt>
            <trkpt lon="101.047725" lat="14.691817">
                <ele>21.766968</ele>
                <time>2008-12-13T09:41:33Z</time>
            </trkpt>
            <trkpt lon="101.047736" lat="14.691786">
                <ele>21.766968</ele>
                <time>2008-12-13T09:41:38Z</time>
            </trkpt>
            <trkpt lon="101.047818" lat="14.691771">
                <ele>18.402344</ele>
                <time>2008-12-13T09:41:50Z</time>
            </trkpt>
            <trkpt lon="101.047834" lat="14.691714">
                <ele>12.634399</ele>
                <time>2008-12-13T09:43:30Z</time>
            </trkpt>
        </trkseg>
    </trk>
</gpx>